2017 SpaGirl Triathlon San Antonio Results

[ Tri ][ Swim/Bike ] [ Swim/Run ] [ Bike/Run ]
2017 SpaGirl Triathlon San Antonio
Triathlon Results
# of finishers: 673
Overall Swim T1 Bike T2 Run
AG
Pos
Pos Name Race No FInish Time AG Pos O Pos Swim Split Swim Pace AG Pos O Pos T1 AG Pos O Pos Bike Split Bike Pace AG Pos O Pos T2 AG Pos O Pos Run Split Run Pace
Overall
1 2 Christine STEPHENSON 777 01:00:17 1 40 00:07:31 1:52 sec/100m 3 181 00:02:59 2 20 00:33:04 18.1 m/hr 2 45 00:01:20 1 5 00:15:21 8:04 min/m
2 3 Kathryn COTHERN 108 01:01:03 3 527 00:09:42 2:25 sec/100m 1 8 00:01:05 1 16 00:32:46 18.3 m/hr 1 43 00:01:19 2 7 00:16:08 8:29 min/m
3 6 Kimberly FOLDEN 765 01:01:17 2 59 00:07:42 1:55 sec/100m 2 29 00:01:40 3 21 00:33:10 18.1 m/hr 3 177 00:02:01 3 14 00:16:42 8:47 min/m
Masters
1 10 Staci KRUEGER 794 01:02:11 1 238 00:08:30 2:07 sec/100m 1 7 00:01:03 1 37 00:34:52 17.2 m/hr 1 14 00:01:05 1 13 00:16:39 8:46 min/m
Ages 14 and Under
1 44 Sophie HUDZIETZ 77 01:08:01 32 456 00:09:17 2:19 sec/100m 4 32 00:01:42 1 80 00:37:39 15.9 m/hr 14 80 00:01:34 3 27 00:17:48 9:22 min/m
2 48 Molly MILLER 137 01:08:19 14 162 00:08:08 2:02 sec/100m 1 6 00:01:02 6 152 00:39:55 15.0 m/hr 2 6 00:01:01 5 32 00:18:12 9:34 min/m
3 52 Sierra GRIFFITH 49 01:08:41 7 43 00:07:32 1:53 sec/100m 15 228 00:03:19 4 111 00:38:51 15.4 m/hr 19 133 00:01:46 1 20 00:17:11 9:03 min/m
4 68 Ryan MILLS 72 01:10:47 12 75 00:07:46 1:56 sec/100m 6 43 00:01:49 2 86 00:38:03 15.8 m/hr 8 38 00:01:17 13 188 00:21:50 11:29 min/m
5 93 Mariah BANNON 337 01:13:04 2 16 00:07:08 1:47 sec/100m 13 182 00:03:01 3 87 00:38:05 15.8 m/hr 1 5 00:01:00 20 281 00:23:48 12:31 min/m
6 95 Lauren JONAS 206 01:13:27 17 274 00:08:37 2:09 sec/100m 2 14 00:01:26 5 131 00:39:23 15.2 m/hr 5 22 00:01:12 16 236 00:22:46 11:59 min/m
7 103 Isa MURPHY 46 01:13:44 8 47 00:07:35 1:53 sec/100m 16 230 00:03:19 7 184 00:40:48 14.7 m/hr 12 67 00:01:29 9 105 00:20:30 10:47 min/m
8 116 Madyson JIMENEZ 559 01:14:54 9 57 00:07:42 1:55 sec/100m 29 435 00:04:46 8 189 00:41:02 14.6 m/hr 4 17 00:01:07 8 94 00:20:15 10:39 min/m
9 141 Kate GUAJARDO 150 01:16:35 1 15 00:07:03 1:45 sec/100m 21 275 00:03:33 9 283 00:43:29 13.8 m/hr 7 25 00:01:13 12 141 00:21:15 11:11 min/m
10 187 Sophia NGUYEN 157 01:19:20 10 60 00:07:43 1:55 sec/100m 24 299 00:03:42 11 349 00:45:16 13.3 m/hr 13 77 00:01:33 11 134 00:21:04 11:05 min/m
11 195 Mcclane MILLS 260 01:19:53 3 26 00:07:20 1:50 sec/100m 7 56 00:02:00 12 373 00:46:09 13.0 m/hr 3 16 00:01:06 18 260 00:23:16 12:14 min/m
12 200 Marlo ZAMORA 230 01:20:04 24 369 00:08:58 2:14 sec/100m 5 35 00:01:42 18 450 00:48:35 12.3 m/hr 15 81 00:01:34 6 58 00:19:13 10:06 min/m
13 214 Julia GARCIA 563 01:20:39 5 31 00:07:24 1:51 sec/100m 9 91 00:02:22 22 467 00:49:24 12.1 m/hr 11 63 00:01:28 7 80 00:19:59 10:31 min/m
14 231 Emma FRANK 631 01:21:34 25 373 00:08:59 2:14 sec/100m 10 104 00:02:25 24 512 00:51:21 11.7 m/hr 6 23 00:01:12 2 23 00:17:35 9:15 min/m
15 296 Catherine HAMISCH 218 01:24:41 34 510 00:09:32 2:23 sec/100m 3 19 00:01:31 10 306 00:44:12 13.6 m/hr 10 55 00:01:24 31 453 00:28:00 14:44 min/m
16 308 Myla RUDD 262 01:25:29 16 269 00:08:36 2:09 sec/100m 19 260 00:03:29 17 444 00:48:22 12.4 m/hr 20 176 00:02:01 17 248 00:23:00 12:06 min/m
17 311 Madelyn CHAO 141 01:25:38 26 378 00:09:00 2:15 sec/100m 18 259 00:03:29 13 377 00:46:18 13.0 m/hr 17 102 00:01:39 26 341 00:25:11 13:15 min/m
18 333 Naya JAYARAM 4 01:26:24 40 654 00:11:48 2:57 sec/100m 25 334 00:03:56 14 378 00:46:18 13.0 m/hr 35 513 00:03:48 10 110 00:20:32 10:48 min/m
19 338 Natalie CHAO 140 01:26:32 22 348 00:08:53 2:13 sec/100m 20 261 00:03:29 19 453 00:48:41 12.3 m/hr 9 42 00:01:19 22 299 00:24:08 12:42 min/m
20 344 Camryn EBERHART 489 01:26:40 11 66 00:07:45 1:56 sec/100m 11 132 00:02:35 20 457 00:48:57 12.3 m/hr 24 267 00:02:25 24 327 00:24:55 13:07 min/m
21 401 Samantha PETERSON 439 01:30:36 13 134 00:08:00 2:00 sec/100m 14 227 00:03:18 25 534 00:52:47 11.4 m/hr 26 348 00:02:47 19 276 00:23:42 12:28 min/m
22 402 Megan LLOYD 63 01:30:53 37 580 00:10:06 2:31 sec/100m 28 400 00:04:26 15 383 00:46:29 12.9 m/hr 40 615 00:05:39 23 303 00:24:10 12:43 min/m
23 412 Lauren BENFIELD 189 01:31:34 4 29 00:07:22 1:50 sec/100m 12 180 00:02:59 23 508 00:51:04 11.7 m/hr 16 88 00:01:37 33 467 00:28:30 15:00 min/m
24 437 Haley BOCK 284 01:33:20 35 545 00:09:48 2:27 sec/100m 23 288 00:03:38 27 561 00:55:26 10.8 m/hr 18 125 00:01:45 15 235 00:22:41 11:56 min/m
25 453 Madeleine SMITH 400 01:34:05 39 601 00:10:19 2:34 sec/100m 38 525 00:05:25 16 440 00:48:18 12.4 m/hr 36 573 00:04:26 27 362 00:25:35 13:28 min/m
26 487 Alexandria BUSSEY 402 01:36:12 38 594 00:10:14 2:33 sec/100m 37 523 00:05:25 21 464 00:49:17 12.2 m/hr 33 484 00:03:30 30 442 00:27:44 14:36 min/m
27 488 Isabella BENITEZ 500 01:36:15 21 316 00:08:46 2:11 sec/100m 26 341 00:03:58 26 550 00:54:56 10.9 m/hr 25 331 00:02:42 28 369 00:25:51 13:36 min/m
28 499 Zoe SINN 828 01:36:49 23 367 00:08:57 2:14 sec/100m 30 436 00:04:46 28 594 00:58:23 10.3 m/hr 23 265 00:02:24 14 214 00:22:17 11:43 min/m
29 535 Roopa BINDINGNAVELE 457 01:40:49 6 34 00:07:27 1:51 sec/100m 17 248 00:03:26 32 619 01:02:22 9.6 m/hr 32 475 00:03:27 21 298 00:24:06 12:41 min/m
30 556 Victoria LONG 405 01:42:32 20 302 00:08:43 2:10 sec/100m 8 88 00:02:19 31 615 01:01:46 9.7 m/hr 21 221 00:02:10 29 433 00:27:31 14:29 min/m
31 584 Franny CUTTER 813 01:47:06 15 245 00:08:31 2:07 sec/100m 27 353 00:04:07 33 624 01:03:09 9.5 m/hr 29 427 00:03:10 32 457 00:28:07 14:47 min/m
32 599 Kara CALDWELL 750 01:48:15 27 414 00:09:07 2:16 sec/100m 31 454 00:04:56 29 603 00:59:28 10.1 m/hr 38 581 00:04:41 35 512 00:30:01 15:48 min/m
33 600 Audrey GIROCCO 803 01:48:18 29 434 00:09:11 2:17 sec/100m 32 457 00:04:57 30 611 01:00:38 9.9 m/hr 34 485 00:03:30 34 511 00:30:00 15:47 min/m
34 607 Elizabeth SCHWEERS 477 01:49:37 19 288 00:08:41 2:10 sec/100m 34 504 00:05:14 38 660 01:14:37 8.0 m/hr 30 432 00:03:13 4 28 00:17:51 9:23 min/m
35 622 Mia JAROSZEWSKI 601 01:55:08 31 452 00:09:14 2:18 sec/100m 33 481 00:05:08 34 627 01:03:29 9.5 m/hr 28 399 00:02:59 36 615 00:34:17 18:02 min/m
36 628 Maia-Kareena CHALLAPALLI 15 01:56:35 28 421 00:09:08 2:17 sec/100m 40 650 00:09:27 36 647 01:08:11 8.8 m/hr 39 583 00:04:43 25 333 00:25:03 13:11 min/m
37 653 Sophia GALLEGOS 31 02:03:48 33 466 00:09:21 2:20 sec/100m 39 632 00:08:01 35 642 01:07:11 8.9 m/hr 22 256 00:02:20 37 632 00:36:52 19:24 min/m
38 664 Emily TIERNAN 74 02:11:45 36 562 00:09:55 2:28 sec/100m 36 514 00:05:20 37 658 01:12:29 8.3 m/hr 27 374 00:02:53 40 660 00:41:06 21:38 min/m
39 671 Skylar CRISP 761 02:19:34 30 447 00:09:13 2:18 sec/100m 35 512 00:05:20 39 666 01:24:04 7.1 m/hr 31 434 00:03:13 38 637 00:37:41 19:50 min/m
40 673 Miranda SANCHEZ 165 02:20:21 18 278 00:08:38 2:09 sec/100m 22 282 00:03:35 40 668 01:24:34 7.1 m/hr 37 578 00:04:38 39 644 00:38:54 20:28 min/m
Ages 15 and 19
1 37 Reagan HEARD 2 01:07:02 1 3 00:06:30 1:37 sec/100m 2 95 00:02:23 1 43 00:35:41 16.8 m/hr 5 216 00:02:09 4 95 00:20:17 10:40 min/m
2 38 Grace FRAGA 580 01:07:07 3 80 00:07:48 1:57 sec/100m 5 319 00:03:49 2 107 00:38:45 15.5 m/hr 3 104 00:01:39 2 3 00:15:04 7:56 min/m
3 117 Addie SYMONDS 625 01:14:58 13 446 00:09:13 2:18 sec/100m 12 536 00:05:36 12 570 00:55:47 10.8 m/hr 11 444 00:03:14 1 1 00:01:06 0:34 min/m
4 216 Anna GUAJARDO 149 01:20:44 2 7 00:06:43 1:40 sec/100m 3 106 00:02:25 11 436 00:48:08 12.5 m/hr 2 78 00:01:33 9 190 00:21:53 11:31 min/m
5 224 Melody STEVENSON 224 01:21:13 16 644 00:11:19 2:49 sec/100m 1 1 00:00:08 5 202 00:41:30 14.5 m/hr 1 46 00:01:21 12 406 00:26:53 14:09 min/m
6 237 Christina CRAWFORD 806 01:21:48 8 222 00:08:24 2:06 sec/100m 8 391 00:04:22 7 291 00:43:34 13.8 m/hr 16 528 00:03:54 8 163 00:21:32 11:20 min/m
7 240 Delaney HARRIS 76 01:22:00 4 103 00:07:53 1:58 sec/100m 10 478 00:05:06 8 322 00:44:44 13.4 m/hr 15 495 00:03:39 6 113 00:20:36 10:50 min/m
8 242 Tabitha HARRIS 122 01:22:03 5 109 00:07:53 1:58 sec/100m 11 492 00:05:10 9 328 00:44:52 13.4 m/hr 14 482 00:03:29 5 112 00:20:36 10:50 min/m
9 286 Andrea SANTANGELO 758 01:23:54 6 117 00:07:55 1:58 sec/100m 9 394 00:04:24 6 274 00:43:14 13.9 m/hr 4 151 00:01:53 11 384 00:26:26 13:55 min/m
10 330 Brooke ROBBINS 802 01:26:22 9 246 00:08:32 2:08 sec/100m 13 569 00:05:55 10 374 00:46:10 13.0 m/hr 10 416 00:03:04 10 232 00:22:39 11:55 min/m
11 408 Diana JONES 62 01:31:26 7 131 00:07:59 1:59 sec/100m 4 305 00:03:43 14 584 00:57:21 10.5 m/hr 6 270 00:02:26 3 76 00:19:55 10:29 min/m
12 458 Sophie JAAFAR 782 01:34:22 10 284 00:08:40 2:10 sec/100m 16 663 00:16:08 3 137 00:39:36 15.1 m/hr 8 352 00:02:48 14 414 00:27:08 14:16 min/m
13 459 Alexis AGUALLO 783 01:34:24 11 298 00:08:43 2:10 sec/100m 15 662 00:16:04 4 141 00:39:39 15.1 m/hr 9 353 00:02:48 15 415 00:27:09 14:17 min/m
14 474 Dani MOKRY 763 01:35:16 14 602 00:10:19 2:34 sec/100m 6 342 00:03:59 13 572 00:56:11 10.7 m/hr 12 458 00:03:20 7 150 00:21:25 11:16 min/m
15 530 Morgan LEMONS 486 01:40:03 12 372 00:08:58 2:14 sec/100m 7 344 00:04:01 15 585 00:57:24 10.5 m/hr 7 304 00:02:33 13 411 00:27:04 14:15 min/m
16 668 Kayla HAWKINS 430 02:16:00 15 615 00:10:29 2:37 sec/100m 14 655 00:11:36 16 655 01:10:28 8.5 m/hr 13 465 00:03:23 16 654 00:40:02 21:04 min/m
Ages 20 - 24
1 29 Briana ZAMORA 229 01:05:53 7 342 00:08:52 2:13 sec/100m 2 49 00:01:53 3 105 00:38:44 15.5 m/hr 1 7 00:01:02 1 4 00:15:21 8:04 min/m
2 45 Miranda WEED 773 01:08:03 1 11 00:06:56 1:44 sec/100m 1 13 00:01:23 4 122 00:39:03 15.4 m/hr 2 10 00:01:03 4 70 00:19:37 10:19 min/m
3 50 Claire KAZEN 483 01:08:32 10 426 00:09:09 2:17 sec/100m 6 314 00:03:47 2 77 00:37:32 16.0 m/hr 5 131 00:01:46 2 10 00:16:17 8:34 min/m
4 55 Asia SAIS-MARQUEZ 359 01:09:04 2 27 00:07:20 1:50 sec/100m 8 363 00:04:11 1 68 00:37:00 16.2 m/hr 4 97 00:01:38 3 48 00:18:52 9:56 min/m
5 146 Daniella SANTANGELO 94 01:17:06 3 161 00:08:07 2:01 sec/100m 3 120 00:02:30 6 217 00:41:51 14.3 m/hr 3 34 00:01:16 5 262 00:23:20 12:16 min/m
6 241 Klaire JOHNSON 199 01:22:01 4 181 00:08:13 2:03 sec/100m 4 220 00:03:17 5 192 00:41:09 14.6 m/hr 7 240 00:02:14 8 412 00:27:06 14:15 min/m
7 403 Kristyn COURTNEY 688 01:30:54 6 282 00:08:39 2:09 sec/100m 5 240 00:03:21 8 543 00:53:37 11.2 m/hr 6 154 00:01:54 6 263 00:23:20 12:17 min/m
8 461 Molly HIBBARD 435 01:34:41 5 193 00:08:15 2:03 sec/100m 10 629 00:07:52 7 427 00:47:49 12.5 m/hr 11 467 00:03:24 9 424 00:27:19 14:22 min/m
9 519 Miriam THOMAS 493 01:38:52 8 382 00:09:00 2:15 sec/100m 7 326 00:03:52 10 607 00:59:44 10.0 m/hr 8 261 00:02:22 7 285 00:23:52 12:34 min/m
10 638 Gabby ESCAMILLA 741 01:59:25 11 482 00:09:23 2:20 sec/100m 9 513 00:05:20 9 600 00:59:20 10.1 m/hr 9 298 00:02:31 11 665 00:42:48 22:32 min/m
11 643 Kelly FARR 508 02:00:10 9 386 00:09:01 2:15 sec/100m 11 645 00:08:52 11 618 01:01:56 9.7 m/hr 10 381 00:02:54 10 636 00:37:24 19:41 min/m
Ages 25 - 29
1 7 Elaine KUCKERTZ 756 01:01:43 3 12 00:06:57 1:44 sec/100m 7 205 00:03:09 1 38 00:34:53 17.2 m/hr 2 40 00:01:19 1 6 00:15:24 8:06 min/m
2 32 Kara JOHNSON 778 01:06:17 2 5 00:06:39 1:39 sec/100m 5 119 00:02:30 3 67 00:36:59 16.2 m/hr 1 18 00:01:08 3 54 00:18:59 9:59 min/m
3 62 Elizabeth GARCIA 299 01:10:05 4 13 00:06:59 1:44 sec/100m 3 113 00:02:27 4 121 00:39:02 15.4 m/hr 6 109 00:01:40 4 77 00:19:55 10:29 min/m
4 110 Paige HARRIS 64 01:14:24 14 217 00:08:23 2:05 sec/100m 11 343 00:04:00 6 161 00:40:19 14.9 m/hr 18 367 00:02:52 2 42 00:18:48 9:54 min/m
5 111 Jackie FLYNN 354 01:14:28 5 30 00:07:23 1:50 sec/100m 8 211 00:03:12 5 151 00:39:55 15.0 m/hr 4 87 00:01:36 16 218 00:22:20 11:45 min/m
6 123 Cayte JOHNSON 606 01:15:20 9 127 00:07:59 1:59 sec/100m 6 195 00:03:06 8 191 00:41:08 14.6 m/hr 5 92 00:01:37 10 156 00:21:29 11:18 min/m
7 131 Elizabeth JACKSON 454 01:15:48 10 180 00:08:13 2:03 sec/100m 2 86 00:02:18 12 219 00:41:51 14.3 m/hr 7 132 00:01:46 12 172 00:21:38 11:23 min/m
8 139 Andrea KRUPA 748 01:16:27 16 237 00:08:29 2:07 sec/100m 10 331 00:03:55 7 168 00:40:26 14.8 m/hr 16 343 00:02:46 8 121 00:20:48 10:57 min/m
9 144 Katie WEGNER 432 01:16:59 1 2 00:06:26 1:36 sec/100m 4 118 00:02:30 11 211 00:41:41 14.4 m/hr 3 79 00:01:34 17 322 00:24:46 13:02 min/m
10 182 Courtney CARTER 800 01:19:10 8 115 00:07:55 1:58 sec/100m 14 445 00:04:50 10 208 00:41:39 14.4 m/hr 19 417 00:03:05 13 175 00:21:39 11:23 min/m
11 226 Aspen ADAMS 482 01:21:17 19 428 00:09:10 2:17 sec/100m 21 537 00:05:37 13 226 00:42:00 14.3 m/hr 21 500 00:03:41 7 119 00:20:48 10:56 min/m
12 233 Audrey MAREK 394 01:21:42 13 213 00:08:22 2:05 sec/100m 19 517 00:05:21 15 258 00:42:50 14.0 m/hr 17 366 00:02:52 15 212 00:22:16 11:43 min/m
13 236 Faye STEVENSON 1002 01:21:46 26 641 00:11:16 2:49 sec/100m 22 588 00:06:15 2 53 00:36:25 16.5 m/hr 12 275 00:02:27 19 348 00:25:21 13:20 min/m
14 266 Kristen SIMONS 546 01:22:54 6 91 00:07:50 1:57 sec/100m 13 440 00:04:47 14 257 00:42:48 14.0 m/hr 11 273 00:02:26 18 329 00:25:00 13:09 min/m
15 300 Kendra ONEEL 774 01:24:52 7 114 00:07:55 1:58 sec/100m 9 242 00:03:23 9 205 00:41:35 14.4 m/hr 13 276 00:02:27 22 502 00:29:30 15:31 min/m
16 320 Kelsey SANDERS 434 01:26:05 18 384 00:09:01 2:15 sec/100m 18 509 00:05:18 19 376 00:46:15 13.0 m/hr 20 453 00:03:18 14 208 00:22:11 11:41 min/m
17 328 Alysha SOTO 859 01:26:17 11 191 00:08:15 2:03 sec/100m 16 467 00:05:00 21 495 00:50:33 11.9 m/hr 9 180 00:02:01 6 101 00:20:24 10:44 min/m
18 339 Kaitlin FARR 607 01:26:32 15 223 00:08:24 2:06 sec/100m 20 529 00:05:30 16 307 00:44:13 13.6 m/hr 8 138 00:01:49 20 389 00:26:34 13:59 min/m
19 354 Morgan KLUMPP 503 01:27:20 12 211 00:08:21 2:05 sec/100m 12 415 00:04:34 17 330 00:44:53 13.4 m/hr 14 296 00:02:31 21 409 00:26:59 14:12 min/m
20 374 Shelby HOLLOWAY 791 01:29:17 22 501 00:09:28 2:22 sec/100m 17 508 00:05:16 22 497 00:50:44 11.8 m/hr 10 224 00:02:11 11 169 00:21:36 11:22 min/m
21 384 Felicia TRAVIESO 848 01:29:34 23 555 00:09:52 2:28 sec/100m 24 621 00:07:31 18 343 00:45:04 13.3 m/hr 26 641 00:06:49 5 98 00:20:18 10:41 min/m
22 405 Abigail STANHOUSE 863 01:31:09 25 637 00:11:01 2:45 sec/100m 25 623 00:07:35 20 400 00:46:52 12.8 m/hr 23 560 00:04:16 9 146 00:21:23 11:15 min/m
23 568 Aneesha BETTS 591 01:44:38 21 478 00:09:22 2:20 sec/100m 1 72 00:02:12 25 565 00:55:38 10.8 m/hr 22 537 00:03:59 23 593 00:33:25 17:35 min/m
24 571 Becca TRAMMELL 251 01:44:45 20 440 00:09:12 2:18 sec/100m 15 458 00:04:57 23 520 00:51:44 11.6 m/hr 24 602 00:05:10 24 597 00:33:40 17:43 min/m
25 636 Laura SALAS 98 01:59:19 24 581 00:10:07 2:31 sec/100m 23 613 00:07:13 26 608 01:00:09 10.0 m/hr 15 303 00:02:33 26 648 00:39:15 20:39 min/m
26 660 Joy SNYDER 358 02:06:45 17 376 00:08:59 2:14 sec/100m 26 664 00:21:39 24 554 00:55:20 10.8 m/hr 25 625 00:05:52 25 621 00:34:53 18:21 min/m
Ages 30 - 34
1 23 Brandee HARGENS 341 01:05:00 16 111 00:07:54 1:58 sec/100m 3 75 00:02:13 1 14 00:32:34 18.4 m/hr 4 64 00:01:28 19 122 00:20:50 10:57 min/m
2 57 Staci DAVIS 766 01:09:32 2 19 00:07:12 1:48 sec/100m 12 161 00:02:52 3 84 00:37:51 15.8 m/hr 27 248 00:02:18 8 61 00:19:18 10:09 min/m
3 59 Sarah DITCH 326 01:09:46 6 48 00:07:37 1:54 sec/100m 30 255 00:03:28 11 142 00:39:43 15.1 m/hr 16 136 00:01:47 2 19 00:17:09 9:02 min/m
4 63 Shayla MCKENZIE 544 01:10:16 32 266 00:08:35 2:08 sec/100m 4 76 00:02:13 5 92 00:38:15 15.7 m/hr 7 96 00:01:38 11 67 00:19:33 10:17 min/m
5 72 Brooke HOGAN 237 01:11:08 60 533 00:09:44 2:26 sec/100m 1 37 00:01:44 4 85 00:37:59 15.8 m/hr 1 9 00:01:02 18 115 00:20:37 10:51 min/m
6 75 Sara MCLIN 392 01:11:16 24 194 00:08:15 2:03 sec/100m 5 109 00:02:26 6 104 00:38:41 15.5 m/hr 6 85 00:01:35 17 97 00:20:17 10:40 min/m
7 76 Kristin KRENZ 576 01:11:23 21 158 00:08:06 2:01 sec/100m 16 199 00:03:08 13 165 00:40:22 14.9 m/hr 9 99 00:01:38 3 29 00:18:06 9:32 min/m
8 86 Kimberly WOOTTEN 233 01:12:36 8 71 00:07:46 1:56 sec/100m 8 117 00:02:29 2 82 00:37:48 15.9 m/hr 8 98 00:01:38 31 242 00:22:53 12:02 min/m
9 88 Ashley ANCIRA 857 01:12:47 1 14 00:07:03 1:45 sec/100m 11 154 00:02:48 18 220 00:41:55 14.3 m/hr 3 49 00:01:21 14 71 00:19:39 10:20 min/m
10 94 Shannon DORNON 349 01:13:08 7 58 00:07:42 1:55 sec/100m 18 206 00:03:10 17 179 00:40:44 14.7 m/hr 19 156 00:01:55 12 68 00:19:35 10:18 min/m
11 96 Heidi ADAMS 441 01:13:28 14 101 00:07:52 1:58 sec/100m 52 474 00:05:05 12 144 00:39:47 15.1 m/hr 14 123 00:01:44 6 51 00:18:58 9:59 min/m
12 98 Gabriela PANTOJA 772 01:13:35 19 151 00:08:04 2:01 sec/100m 6 110 00:02:26 14 170 00:40:27 14.8 m/hr 29 259 00:02:21 16 93 00:20:15 10:39 min/m
13 102 Lindsey GIPSON 281 01:13:42 48 407 00:09:06 2:16 sec/100m 46 401 00:04:28 9 114 00:38:54 15.4 m/hr 18 148 00:01:52 9 63 00:19:21 10:11 min/m
14 121 Carrie FUNK 16 01:15:06 23 168 00:08:11 2:02 sec/100m 26 245 00:03:25 26 270 00:43:08 13.9 m/hr 5 75 00:01:32 5 43 00:18:49 9:54 min/m
15 138 Cynthia GUIDRY 673 01:16:25 12 87 00:07:50 1:57 sec/100m 31 266 00:03:29 28 281 00:43:24 13.8 m/hr 25 223 00:02:10 10 65 00:19:29 10:15 min/m
16 151 Emylee MCINTYRE 380 01:17:31 29 249 00:08:32 2:08 sec/100m 23 226 00:03:18 10 139 00:39:38 15.1 m/hr 24 213 00:02:08 36 286 00:23:52 12:34 min/m
17 155 Kayla JAEGER 90 01:17:46 3 22 00:07:13 1:48 sec/100m 7 114 00:02:27 8 109 00:38:49 15.5 m/hr 35 342 00:02:46 43 386 00:26:29 13:56 min/m
18 156 Brooke KIECKE 809 01:17:51 65 622 00:10:39 2:39 sec/100m 59 553 00:05:46 22 248 00:42:40 14.1 m/hr 12 121 00:01:42 1 17 00:17:02 8:57 min/m
19 163 Katie FRANCKOWIAK 494 01:18:17 10 77 00:07:47 1:56 sec/100m 2 66 00:02:08 7 106 00:38:45 15.5 m/hr 38 372 00:02:53 47 399 00:26:42 14:03 min/m
20 167 Kasey BUCHTIEN 792 01:18:26 26 233 00:08:27 2:06 sec/100m 55 511 00:05:20 16 178 00:40:40 14.7 m/hr 60 596 00:04:59 7 53 00:18:58 9:59 min/m
21 171 Shanna BRANDT 769 01:18:41 9 74 00:07:46 1:56 sec/100m 17 200 00:03:08 23 255 00:42:45 14.0 m/hr 49 460 00:03:20 23 174 00:21:39 11:23 min/m
22 185 Jennifer SERRANO 304 01:19:15 35 281 00:08:39 2:09 sec/100m 10 138 00:02:38 29 292 00:43:37 13.8 m/hr 10 107 00:01:40 30 233 00:22:39 11:55 min/m
23 194 Lacey TEW 320 01:19:52 49 408 00:09:06 2:16 sec/100m 38 345 00:04:01 20 242 00:42:27 14.1 m/hr 34 340 00:02:45 22 161 00:21:32 11:20 min/m
24 204 Roxanne MOORE 300 01:20:17 15 107 00:07:53 1:58 sec/100m 27 246 00:03:25 31 302 00:44:03 13.6 m/hr 20 161 00:01:58 33 245 00:22:56 12:04 min/m
25 208 Adrienne DAVITZ 240 01:20:29 27 239 00:08:30 2:07 sec/100m 44 385 00:04:21 33 312 00:44:27 13.5 m/hr 26 238 00:02:14 20 126 00:20:55 11:00 min/m
26 217 Lindsey BOBINGER 312 01:20:47 68 668 00:59:32 14:53 sec/100m     -00:49:40 50 447 00:48:27 12.4 m/hr 2 28 00:01:14 21 140 00:21:12 11:09 min/m
27 228 Ashlea ADAMS 442 01:21:22 13 90 00:07:50 1:57 sec/100m 50 471 00:05:03 30 297 00:43:44 13.7 m/hr 23 208 00:02:06 29 229 00:22:37 11:54 min/m
28 229 Melissa BUREK 79 01:21:28 33 271 00:08:36 2:09 sec/100m 15 192 00:03:05 19 234 00:42:15 14.2 m/hr 45 423 00:03:08 38 310 00:24:21 12:49 min/m
29 247 Courtney DODGE 545 01:22:12 30 250 00:08:32 2:08 sec/100m 34 306 00:03:43 42 375 00:46:12 13.0 m/hr 11 110 00:01:40 27 201 00:22:03 11:36 min/m
30 253 Morgan DRAUGHON 302 01:22:23 34 280 00:08:38 2:09 sec/100m 14 190 00:03:05 46 417 00:47:23 12.7 m/hr 43 402 00:02:59 15 92 00:20:14 10:39 min/m
31 257 Allison SUMNERS 639 01:22:33 11 84 00:07:49 1:57 sec/100m 63 595 00:06:29 32 309 00:44:24 13.5 m/hr 55 552 00:04:14 13 69 00:19:36 10:19 min/m
32 264 Samantha HUNTER 753 01:22:48 54 442 00:09:12 2:18 sec/100m 9 137 00:02:38 36 331 00:44:54 13.4 m/hr 28 252 00:02:20 34 275 00:23:42 12:28 min/m
33 283 Kayla NILES 550 01:23:38 20 153 00:08:05 2:01 sec/100m 35 310 00:03:45 38 345 00:45:07 13.3 m/hr 22 200 00:02:05 40 318 00:24:34 12:56 min/m
34 284 Bethany KALICH 598 01:23:46 36 301 00:08:43 2:10 sec/100m 29 249 00:03:26 34 314 00:44:34 13.5 m/hr 61 605 00:05:18 24 182 00:21:43 11:26 min/m
35 288 Julie BEDINGFIELD 385 01:23:59 4 28 00:07:22 1:50 sec/100m 20 212 00:03:13 25 261 00:42:57 14.0 m/hr 54 523 00:03:52 45 390 00:26:34 13:59 min/m
36 290 Alicia MURPHY 377 01:24:05 18 147 00:08:03 2:00 sec/100m 24 232 00:03:19 24 260 00:42:52 14.0 m/hr 44 421 00:03:07 48 400 00:26:42 14:03 min/m
37 301 Amanda ESSARY 804 01:24:56 17 119 00:07:56 1:59 sec/100m 53 477 00:05:06 44 386 00:46:35 12.9 m/hr 40 380 00:02:54 28 222 00:22:24 11:47 min/m
38 303 Samantha ZIMMERMAN 342 01:25:06 28 241 00:08:30 2:07 sec/100m 43 372 00:04:15 15 175 00:40:33 14.8 m/hr 67 657 00:09:50 26 196 00:21:55 11:32 min/m
39 307 Leslie WARD 796 01:25:24 5 41 00:07:32 1:53 sec/100m 19 207 00:03:10 51 451 00:48:36 12.3 m/hr 13 122 00:01:42 39 311 00:24:22 12:49 min/m
40 337 Brittany WEIHER 571 01:26:31 22 165 00:08:09 2:02 sec/100m 41 364 00:04:11 40 369 00:45:53 13.1 m/hr 56 554 00:04:14 37 293 00:24:02 12:38 min/m
41 398 Patricia MARTINEZ 492 01:30:13 64 608 00:10:22 2:35 sec/100m 45 396 00:04:25 27 276 00:43:17 13.9 m/hr 58 579 00:04:39 49 430 00:27:28 14:27 min/m
42 399 Lindsey BANNON 338 01:30:29 62 565 00:09:56 2:29 sec/100m 47 402 00:04:28 37 338 00:44:59 13.3 m/hr 17 143 00:01:50 56 494 00:29:14 15:23 min/m
43 411 Paige HUEBNER 807 01:31:34 66 626 00:10:42 2:40 sec/100m 60 554 00:05:47 39 362 00:45:40 13.1 m/hr 50 468 00:03:24 41 373 00:25:59 13:40 min/m
44 443 Monica CAMPBELL 169 01:33:31 39 344 00:08:53 2:13 sec/100m 33 286 00:03:37 53 472 00:49:47 12.1 m/hr 33 305 00:02:33 52 469 00:28:39 15:05 min/m
45 445 Brittany TENORIO 367 01:33:36 58 496 00:09:26 2:21 sec/100m 48 418 00:04:35 21 247 00:42:39 14.1 m/hr 53 504 00:03:43 63 590 00:33:10 17:27 min/m
46 451 Angela HOUSTON 28 01:33:49 63 599 00:10:18 2:34 sec/100m 25 239 00:03:21 48 430 00:47:57 12.5 m/hr 51 476 00:03:27 53 474 00:28:44 15:07 min/m
47 452 Hollie LANDRUM 448 01:33:55 43 365 00:08:57 2:14 sec/100m 13 171 00:02:55 55 490 00:50:24 11.9 m/hr 37 356 00:02:49 54 477 00:28:48 15:09 min/m
48 454 Salma DEBAR 557 01:34:06 46 397 00:09:03 2:15 sec/100m 28 247 00:03:25 54 488 00:50:19 11.9 m/hr 52 486 00:03:34 50 439 00:27:42 14:35 min/m
49 457 Stacy RUTLEDGE 318 01:34:13 50 411 00:09:06 2:16 sec/100m 22 223 00:03:17 49 439 00:48:15 12.4 m/hr 21 183 00:02:02 61 547 00:31:31 16:35 min/m
50 472 Ali BAUGH 308 01:35:09 40 351 00:08:54 2:13 sec/100m 57 540 00:05:37 35 329 00:44:53 13.4 m/hr 68 668 00:16:56 4 39 00:18:47 9:53 min/m
51 473 Ashley POWELL 572 01:35:14 31 258 00:08:34 2:08 sec/100m 64 601 00:06:38 52 458 00:49:00 12.2 m/hr 57 572 00:04:25 46 391 00:26:34 13:59 min/m
52 475 Shelby UBRICH 617 01:35:19 44 379 00:09:00 2:15 sec/100m 54 503 00:05:14 43 379 00:46:20 12.9 m/hr 47 443 00:03:14 60 546 00:31:27 16:33 min/m
53 479 Stephanie HORSTMANN 420 01:35:30 57 489 00:09:25 2:21 sec/100m 49 459 00:04:58 58 522 00:51:45 11.6 m/hr 46 441 00:03:14 42 381 00:26:06 13:44 min/m
54 483 Donnishia WILLIAMS 437 01:35:47 52 425 00:09:09 2:17 sec/100m 61 577 00:06:04 41 370 00:45:54 13.1 m/hr 39 379 00:02:54 62 555 00:31:44 16:42 min/m
55 496 Elizabeth PHARISS 649 01:36:35 56 480 00:09:23 2:20 sec/100m 62 579 00:06:06 57 498 00:50:45 11.8 m/hr 65 634 00:06:37 35 278 00:23:43 12:29 min/m
56 500 Megan HEMMEGER 736 01:36:50 47 399 00:09:04 2:16 sec/100m 32 280 00:03:34 61 559 00:55:25 10.8 m/hr 63 623 00:05:51 32 243 00:22:54 12:03 min/m
57 508 Karen HATTIG 289 01:37:54 53 439 00:09:12 2:18 sec/100m 39 348 00:04:03 47 428 00:47:53 12.5 m/hr 41 393 00:02:57 64 607 00:33:47 17:47 min/m
58 511 Elizabeth TERRY 313 01:38:01 37 323 00:08:47 2:11 sec/100m 56 538 00:05:37 62 568 00:55:40 10.8 m/hr 64 631 00:06:11 25 183 00:21:44 11:26 min/m
59 524 Lindsey FLEMING 37 01:39:19 61 553 00:09:51 2:27 sec/100m 65 620 00:07:30 56 492 00:50:29 11.9 m/hr 15 128 00:01:45 57 505 00:29:42 15:37 min/m
60 555 Kyla SCHOLZ 162 01:42:25 67 649 00:11:42 2:55 sec/100m 37 324 00:03:50 59 535 00:52:55 11.3 m/hr 32 302 00:02:33 59 543 00:31:23 16:31 min/m
61 563 Jennie YOSHIMOTO 135 01:44:14 51 422 00:09:09 2:17 sec/100m 51 473 00:05:04 63 571 00:56:06 10.7 m/hr 59 588 00:04:50 55 487 00:29:04 15:17 min/m
62 564 Samantha MCGEE 608 01:44:16 42 360 00:08:56 2:14 sec/100m 66 646 00:08:53 45 414 00:47:18 12.7 m/hr 36 347 00:02:47 66 629 00:36:19 19:07 min/m
63 579 Allison HALLMARK 556 01:46:12 38 340 00:08:52 2:13 sec/100m 58 543 00:05:39 64 586 00:57:27 10.4 m/hr 66 649 00:07:41 44 388 00:26:32 13:57 min/m
64 580 Kimberly GARZA 692 01:46:15 41 353 00:08:55 2:13 sec/100m 36 311 00:03:45 65 609 01:00:22 9.9 m/hr 31 295 00:02:31 58 528 00:30:40 16:08 min/m
65 583 Lindsey STRATTON 814 01:47:04 25 218 00:08:23 2:05 sec/100m 42 371 00:04:14 66 622 01:02:58 9.5 m/hr 48 457 00:03:20 51 458 00:28:07 14:48 min/m
66 642 Julie KROSCHK 411 02:00:06 59 503 00:09:28 2:22 sec/100m 40 352 00:04:07 67 625 01:03:11 9.5 m/hr 42 396 00:02:58 67 657 00:40:21 21:14 min/m
67 661 Jacqueline SNYDER 306 02:06:47 45 385 00:09:01 2:15 sec/100m 67 666 00:21:45 60 556 00:55:22 10.8 m/hr 62 619 00:05:46 65 620 00:34:52 18:21 min/m
68 662 Mary SHEEHAN 593 02:08:05 55 473 00:09:22 2:20 sec/100m 21 218 00:03:16 68 657 01:11:47 8.4 m/hr 30 284 00:02:29 68 661 00:41:09 21:39 min/m
Ages 35 - 39
1 12 Emily MENDOZA 151 01:02:34 2 8 00:06:46 1:41 sec/100m 1 3 00:00:51 19 51 00:36:16 16.5 m/hr 1 4 00:00:59 8 26 00:17:41 9:18 min/m
2 13 April ANCIRA 755 01:02:45 5 21 00:07:12 1:48 sec/100m 22 78 00:02:15 3 22 00:33:33 17.9 m/hr 4 24 00:01:13 13 36 00:18:31 9:45 min/m
3 16 Jennifer KNUDTSON 350 01:03:07 6 24 00:07:17 1:49 sec/100m 2 10 00:01:16 6 29 00:34:00 17.6 m/hr 6 27 00:01:14 19 62 00:19:19 10:10 min/m
4 17 Robin HADDEN 18 01:03:32 122 572 00:10:00 2:30 sec/100m 35 151 00:02:46 28 78 00:37:36 16.0 m/hr 7 29 00:01:15 1 2 00:11:54 6:15 min/m
5 18 Amber LIVESEY 811 01:03:40 21 99 00:07:51 1:57 sec/100m 6 22 00:01:33 2 17 00:32:46 18.3 m/hr 19 82 00:01:34 22 75 00:19:54 10:28 min/m
6 19 Sarah SHRADER 173 01:03:41 109 523 00:09:39 2:24 sec/100m 5 16 00:01:29 10 35 00:34:40 17.3 m/hr 21 89 00:01:37 2 8 00:16:14 8:33 min/m
7 20 Stephanie FISHEL 858 01:04:37 8 38 00:07:30 1:52 sec/100m 11 36 00:01:43 8 31 00:34:15 17.5 m/hr 3 15 00:01:06 24 83 00:20:01 10:32 min/m
8 21 Jennifer GIOVANNETTI 295 01:04:56 3 18 00:07:09 1:47 sec/100m 7 27 00:01:39 9 33 00:34:23 17.4 m/hr 18 76 00:01:32 26 87 00:20:10 10:37 min/m
9 24 Emma MADSEN 97 01:05:13 78 336 00:08:51 2:12 sec/100m 9 33 00:01:42 11 39 00:34:57 17.2 m/hr 11 54 00:01:24 12 35 00:18:17 9:37 min/m
10 25 Deb ROBERTS 178 01:05:18 7 33 00:07:25 1:51 sec/100m 32 128 00:02:33 4 24 00:33:37 17.8 m/hr 25 103 00:01:39 25 84 00:20:02 10:32 min/m
11 28 Kim DELAWYER 336 01:05:41 35 148 00:08:03 2:00 sec/100m 16 55 00:02:00 13 41 00:35:22 17.0 m/hr 9 52 00:01:22 15 47 00:18:52 9:55 min/m
12 31 Jennifer WYTON 310 01:06:08 1 6 00:06:43 1:40 sec/100m 42 186 00:03:04 25 70 00:37:07 16.2 m/hr 52 228 00:02:12 6 16 00:17:01 8:57 min/m
13 33 Brittany REED 217 01:06:24 4 20 00:07:12 1:48 sec/100m 38 162 00:02:53 31 88 00:38:06 15.7 m/hr 17 73 00:01:31 4 12 00:16:39 8:46 min/m
14 35 Shannan SCHNITTGER 216 01:06:40 115 546 00:09:48 2:27 sec/100m 10 34 00:01:42 7 30 00:34:11 17.6 m/hr 26 112 00:01:40 18 60 00:19:16 10:08 min/m
15 36 Sandra BYRNE 747 01:07:00 114 543 00:09:47 2:26 sec/100m 12 38 00:01:45 12 40 00:35:20 17.0 m/hr 36 152 00:01:53 11 33 00:18:13 9:35 min/m
16 40 Emily ELWARD 65 01:07:32 18 88 00:07:50 1:57 sec/100m 26 93 00:02:23 24 66 00:36:55 16.2 m/hr 14 62 00:01:28 16 49 00:18:55 9:57 min/m
17 42 Andrea PRCIN 865 01:07:46 130 621 00:10:39 2:39 sec/100m 3 11 00:01:16 5 27 00:33:40 17.8 m/hr 23 91 00:01:37 29 107 00:20:31 10:48 min/m
18 43 Leslie GOODWIN 9 01:07:58 61 285 00:08:40 2:10 sec/100m 15 51 00:01:54 15 44 00:35:52 16.7 m/hr 15 69 00:01:30 23 82 00:20:00 10:31 min/m
19 46 Julia GRAY 51 01:08:06 83 357 00:08:55 2:13 sec/100m 4 12 00:01:21 14 42 00:35:29 16.9 m/hr 22 90 00:01:37 31 118 00:20:41 10:53 min/m
20 47 Rebekah SECHRIST 82 01:08:08 16 68 00:07:45 1:56 sec/100m 37 158 00:02:50 40 128 00:39:17 15.3 m/hr 12 56 00:01:26 5 15 00:16:48 8:50 min/m
21 51 Emma Mathis MATHIS 343 01:08:33 42 195 00:08:16 2:04 sec/100m 25 84 00:02:18 20 54 00:36:29 16.4 m/hr 2 12 00:01:03 28 102 00:20:26 10:45 min/m
22 53 Kathryn SHULER 211 01:08:43 58 263 00:08:35 2:08 sec/100m 14 42 00:01:47 16 46 00:36:02 16.6 m/hr 31 130 00:01:45 30 109 00:20:32 10:48 min/m
23 54 Kimberly GRIFFITH 50 01:08:43 10 45 00:07:34 1:53 sec/100m 50 229 00:03:19 36 110 00:38:51 15.4 m/hr 33 135 00:01:47 7 21 00:17:11 9:03 min/m
24 58 Emely REAMSNYDER 718 01:09:41 11 49 00:07:37 1:54 sec/100m 69 339 00:03:57 22 61 00:36:50 16.3 m/hr 84 419 00:03:06 10 31 00:18:08 9:33 min/m
25 60 Susanna GIROCCO 424 01:10:02 97 444 00:09:12 2:18 sec/100m 90 432 00:04:44 21 58 00:36:40 16.4 m/hr 8 35 00:01:16 9 30 00:18:08 9:32 min/m
26 61 Mindy SWANSON 208 01:10:03 25 123 00:07:56 1:59 sec/100m 21 71 00:02:12 27 75 00:37:29 16.0 m/hr 5 26 00:01:14 35 138 00:21:11 11:08 min/m
27 64 Jessica BORDON 790 01:10:16 123 587 00:10:10 2:32 sec/100m 29 105 00:02:25 18 50 00:36:12 16.6 m/hr 30 129 00:01:45 20 72 00:19:42 10:22 min/m
28 77 Leticia FOTEH 410 01:11:32 13 55 00:07:41 1:55 sec/100m 8 30 00:01:41 38 120 00:39:00 15.4 m/hr 47 204 00:02:05 32 131 00:21:02 11:04 min/m
29 82 Lydia BEDERKA 389 01:11:49 15 63 00:07:44 1:56 sec/100m 43 187 00:03:04 42 132 00:39:28 15.2 m/hr 32 134 00:01:47 21 73 00:19:45 10:23 min/m
30 87 Julie SALDIVA 128 01:12:43 31 135 00:08:01 2:00 sec/100m 24 83 00:02:16 43 143 00:39:46 15.1 m/hr 13 61 00:01:27 36 139 00:21:12 11:09 min/m
31 89 Lauren MALITZ 291 01:12:48 12 51 00:07:39 1:54 sec/100m 20 69 00:02:11 41 130 00:39:21 15.2 m/hr 70 297 00:02:31 33 135 00:21:05 11:05 min/m
32 104 Sarah DANZELL 259 01:13:45 29 132 00:08:00 2:00 sec/100m 57 276 00:03:33 26 72 00:37:19 16.1 m/hr 10 53 00:01:24 64 268 00:23:28 12:21 min/m
33 105 Carolyn DICKERSON 167 01:13:45 48 216 00:08:23 2:05 sec/100m 33 130 00:02:35 37 116 00:38:54 15.4 m/hr 48 210 00:02:07 45 184 00:21:45 11:26 min/m
34 114 Kavita MURTHY 203 01:14:34 88 396 00:09:03 2:15 sec/100m 27 96 00:02:23 35 103 00:38:40 15.5 m/hr 77 360 00:02:49 43 168 00:21:36 11:22 min/m
35 118 Yvette BARRERA 257 01:15:00 24 122 00:07:56 1:59 sec/100m 55 269 00:03:31 32 96 00:38:30 15.6 m/hr 54 235 00:02:13 56 237 00:22:47 11:59 min/m
36 125 Melinda DE LA CRUZ 87 01:15:31 33 139 00:08:01 2:00 sec/100m 60 293 00:03:39 39 127 00:39:14 15.3 m/hr 45 202 00:02:05 55 225 00:22:30 11:50 min/m
37 126 Ana LOPEZ 331 01:15:32 76 330 00:08:50 2:12 sec/100m 48 214 00:03:13 44 146 00:39:50 15.1 m/hr 55 247 00:02:17 37 142 00:21:20 11:13 min/m
38 129 Jessica RALEY 95 01:15:39 32 136 00:08:01 2:00 sec/100m 39 167 00:02:54 34 100 00:38:34 15.6 m/hr 76 344 00:02:46 62 264 00:23:22 12:18 min/m
39 136 Rachel HUDSON 96 01:16:13 66 296 00:08:42 2:10 sec/100m 56 272 00:03:32 75 350 00:45:17 13.2 m/hr 61 272 00:02:26 3 9 00:16:14 8:33 min/m
40 140 Taylor SCHWICHTENBERG 24 01:16:32 82 355 00:08:55 2:13 sec/100m 34 131 00:02:35 51 203 00:41:32 14.4 m/hr 40 168 00:01:59 41 158 00:21:29 11:18 min/m
41 142 Cassie RIOJAS 561 01:16:37 23 118 00:07:55 1:58 sec/100m 53 250 00:03:26 50 199 00:41:23 14.5 m/hr 38 164 00:01:58 48 189 00:21:52 11:30 min/m
42 143 Kellye KIRKPATRICK 86 01:16:41 128 612 00:10:25 2:36 sec/100m 30 111 00:02:27 23 65 00:36:54 16.3 m/hr 29 118 00:01:42 76 343 00:25:12 13:16 min/m
43 147 Sarah MILLER 113 01:17:10 94 427 00:09:09 2:17 sec/100m 17 60 00:02:03 48 169 00:40:27 14.8 m/hr 39 165 00:01:59 65 270 00:23:30 12:22 min/m
44 153 Lacy PATTON 504 01:17:36 27 128 00:07:59 1:59 sec/100m 86 410 00:04:32 46 160 00:40:14 14.9 m/hr 68 291 00:02:30 51 217 00:22:20 11:45 min/m
45 158 Robyn JAMES 805 01:18:07 34 145 00:08:03 2:00 sec/100m 71 346 00:04:01 54 228 00:42:04 14.3 m/hr 69 292 00:02:30 38 152 00:21:27 11:17 min/m
46 159 Courtney KING 754 01:18:08 28 129 00:07:59 1:59 sec/100m 65 323 00:03:50 33 98 00:38:32 15.6 m/hr 96 492 00:03:37 72 301 00:24:08 12:42 min/m
47 172 Elise BOLDT 81 01:18:41 52 248 00:08:32 2:08 sec/100m 41 185 00:03:02 30 81 00:37:43 15.9 m/hr 88 449 00:03:17 81 379 00:26:04 13:43 min/m
48 179 Haylee STEVENSON 223 01:18:57 133 646 00:11:22 2:50 sec/100m 121 587 00:06:15 17 47 00:36:02 16.6 m/hr 78 362 00:02:50 53 223 00:22:26 11:48 min/m
49 192 Anne SAENE 215 01:19:44 87 381 00:09:00 2:15 sec/100m 64 315 00:03:48 80 372 00:46:04 13.0 m/hr 35 142 00:01:50 17 55 00:19:00 10:00 min/m
50 211 Kimberly DAVIS 382 01:20:33 9 39 00:07:31 1:52 sec/100m 28 102 00:02:25 87 407 00:47:02 12.8 m/hr 27 114 00:01:41 49 191 00:21:53 11:31 min/m
51 218 Chelsea LIETZ 244 01:20:50 22 116 00:07:55 1:58 sec/100m 92 441 00:04:47 47 166 00:40:25 14.8 m/hr 98 499 00:03:40 70 291 00:24:00 12:37 min/m
52 225 Melissa HOLMES 647 01:21:17 59 264 00:08:35 2:08 sec/100m 98 487 00:05:10 65 287 00:43:33 13.8 m/hr 65 286 00:02:29 39 154 00:21:28 11:18 min/m
53 227 Kimberly SMITH 669 01:21:20 47 214 00:08:23 2:05 sec/100m 70 340 00:03:57 64 282 00:43:28 13.8 m/hr 63 280 00:02:28 58 251 00:23:02 12:07 min/m
54 238 Annie Johnson JOHNSON 393 01:21:51 17 81 00:07:48 1:57 sec/100m 44 191 00:03:05 53 214 00:41:50 14.3 m/hr 41 171 00:01:59 89 413 00:27:07 14:16 min/m
55 239 Kari DURONIO 26 01:21:55 14 56 00:07:42 1:55 sec/100m 94 449 00:04:52 66 288 00:43:33 13.8 m/hr 72 313 00:02:35 60 257 00:23:12 12:12 min/m
56 243 Carolyn ECKOLS 501 01:22:03 124 595 00:10:16 2:34 sec/100m 120 586 00:06:14 52 204 00:41:33 14.4 m/hr 51 220 00:02:10 46 186 00:21:47 11:28 min/m
57 249 Loretta MALDONADO 194 01:22:17 64 294 00:08:42 2:10 sec/100m 45 197 00:03:08 100 477 00:50:00 12.0 m/hr 24 95 00:01:38 14 41 00:18:47 9:53 min/m
58 261 Kelsi FRAZIER 552 01:22:40 56 259 00:08:34 2:08 sec/100m 62 309 00:03:45 71 333 00:44:57 13.3 m/hr 79 377 00:02:54 54 224 00:22:28 11:49 min/m
59 263 Lauren WALZ 462 01:22:46 51 240 00:08:30 2:07 sec/100m 68 336 00:03:56 57 236 00:42:15 14.2 m/hr 119 592 00:04:55 59 253 00:23:08 12:10 min/m
60 265 Nicole FRANCIS 759 01:22:50 19 92 00:07:50 1:57 sec/100m 88 421 00:04:36 84 398 00:46:51 12.8 m/hr 85 428 00:03:10 27 99 00:20:20 10:42 min/m
61 268 Nicole BONIFACE 296 01:23:00 37 166 00:08:10 2:02 sec/100m 85 408 00:04:30 67 298 00:43:54 13.7 m/hr 83 403 00:02:59 63 267 00:23:24 12:19 min/m
62 273 Ally WALKER 19 01:23:16 98 451 00:09:14 2:18 sec/100m 18 63 00:02:05 60 253 00:42:43 14.0 m/hr 37 157 00:01:55 90 421 00:27:17 14:21 min/m
63 274 Allison BROOKS 324 01:23:19 41 188 00:08:15 2:03 sec/100m 46 203 00:03:09 86 403 00:46:56 12.8 m/hr 92 472 00:03:25 42 162 00:21:32 11:20 min/m
64 282 Emily POMEROY 290 01:23:37 50 235 00:08:28 2:07 sec/100m 110 545 00:05:40 69 324 00:44:44 13.4 m/hr 71 307 00:02:34 50 206 00:22:09 11:39 min/m
65 285 Alice HINOJOSA 597 01:23:54 90 415 00:09:07 2:16 sec/100m 61 301 00:03:42 1 15 00:32:44 18.3 m/hr 122 620 00:05:46 120 574 00:32:32 17:07 min/m
66 289 Shaunda BRADLEY 728 01:24:03 38 170 00:08:11 2:02 sec/100m 36 153 00:02:47 85 402 00:46:56 12.8 m/hr 50 218 00:02:10 69 290 00:23:57 12:36 min/m
67 294 Irene HINOJOSA 871 01:24:28 91 418 00:09:08 2:17 sec/100m 63 312 00:03:45 95 449 00:48:29 12.4 m/hr 20 84 00:01:35 40 157 00:21:29 11:18 min/m
68 297 Khrysten GRACE 586 01:24:46 132 642 00:11:16 2:49 sec/100m 104 507 00:05:16 49 197 00:41:15 14.5 m/hr 108 544 00:04:04 57 241 00:22:52 12:02 min/m
69 304 Amy GUNTHER 721 01:25:08 40 175 00:08:12 2:03 sec/100m 23 81 00:02:16 59 249 00:42:40 14.1 m/hr 111 563 00:04:17 93 438 00:27:42 14:34 min/m
70 305 Michele LOPEZ 481 01:25:09 93 423 00:09:09 2:17 sec/100m 111 552 00:05:46 58 240 00:42:22 14.2 m/hr 125 629 00:06:03 47 187 00:21:48 11:28 min/m
71 313 Mary COLLINS 638 01:25:46 60 270 00:08:36 2:09 sec/100m 122 598 00:06:34 78 360 00:45:37 13.1 m/hr 100 519 00:03:50 34 136 00:21:07 11:07 min/m
72 321 Ruth JOHNSON 497 01:26:06 57 262 00:08:35 2:08 sec/100m 97 464 00:04:59 61 266 00:43:06 13.9 m/hr 121 609 00:05:28 68 289 00:23:57 12:36 min/m
73 323 Amy SIEMSSEN 190 01:26:14 125 600 00:10:19 2:34 sec/100m 31 127 00:02:32 68 313 00:44:32 13.5 m/hr 82 398 00:02:58 80 368 00:25:50 13:36 min/m
74 351 Desirae TORRES 602 01:27:03 116 549 00:09:49 2:27 sec/100m 87 414 00:04:34 77 353 00:45:20 13.2 m/hr 87 445 00:03:15 71 296 00:24:03 12:39 min/m
75 360 Jessica SMITH 733 01:27:42 53 252 00:08:33 2:08 sec/100m 13 41 00:01:47 76 351 00:45:18 13.2 m/hr 109 546 00:04:06 95 450 00:27:57 14:43 min/m
76 365 Elizabeth PEREZ 822 01:28:33 75 329 00:08:49 2:12 sec/100m 40 178 00:02:58 82 385 00:46:31 12.9 m/hr 64 283 00:02:29 94 440 00:27:44 14:35 min/m
77 369 Myra WELLER 560 01:28:50 43 207 00:08:20 2:05 sec/100m 116 571 00:05:57 72 337 00:44:58 13.3 m/hr 66 287 00:02:30 88 410 00:27:02 14:14 min/m
78 375 Molly PITTS 853 01:29:25 69 309 00:08:45 2:11 sec/100m 51 237 00:03:20 70 325 00:44:46 13.4 m/hr 97 497 00:03:40 101 478 00:28:52 15:11 min/m
79 377 Katherine THOMPSON 344 01:29:28 99 460 00:09:19 2:19 sec/100m 118 584 00:06:14 73 340 00:45:01 13.3 m/hr 115 571 00:04:24 75 314 00:24:28 12:53 min/m
80 379 Megan O'BANION 231 01:29:29 100 471 00:09:22 2:20 sec/100m 117 583 00:06:11 74 344 00:45:06 13.3 m/hr 112 567 00:04:22 74 313 00:24:27 12:52 min/m
81 380 Lisa HOKANSON 786 01:29:29 26 126 00:07:58 1:59 sec/100m 75 361 00:04:10 79 363 00:45:44 13.1 m/hr 74 336 00:02:44 102 479 00:28:52 15:11 min/m
82 382 Lauren DELOZIER 93 01:29:33 101 483 00:09:24 2:21 sec/100m 119 585 00:06:14 63 277 00:43:18 13.9 m/hr 126 630 00:06:09 73 312 00:24:26 12:51 min/m
83 387 Sarah ELIZONDO 347 01:29:38 20 96 00:07:51 1:57 sec/100m 109 544 00:05:39 90 418 00:47:24 12.7 m/hr 43 193 00:02:03 85 395 00:26:38 14:01 min/m
84 389 Monica GONZALES 568 01:29:53 39 171 00:08:12 2:03 sec/100m 89 422 00:04:36 83 390 00:46:42 12.8 m/hr 105 534 00:03:58 82 383 00:26:23 13:53 min/m
85 393 Margaret WHITE 752 01:29:58 63 292 00:08:42 2:10 sec/100m 84 407 00:04:30 62 273 00:43:11 13.9 m/hr 114 570 00:04:22 105 492 00:29:11 15:21 min/m
86 396 Felicia SANTIAGO 452 01:30:04 126 605 00:10:20 2:35 sec/100m 76 366 00:04:13 55 231 00:42:06 14.2 m/hr 123 626 00:05:55 91 429 00:27:28 14:27 min/m
87 418 Rupa SHAH 548 01:31:47 117 552 00:09:50 2:27 sec/100m 19 64 00:02:05 88 410 00:47:10 12.7 m/hr 56 258 00:02:21 112 520 00:30:20 15:57 min/m
88 420 Sarabeth KUZMAK 357 01:32:19 44 208 00:08:20 2:05 sec/100m 82 393 00:04:23 102 481 00:50:06 12.0 m/hr 34 140 00:01:49 92 437 00:27:39 14:33 min/m
89 422 Catheryne HASLEY 779 01:32:44 121 566 00:09:56 2:29 sec/100m 101 501 00:05:13 93 442 00:48:19 12.4 m/hr 58 264 00:02:24 86 404 00:26:49 14:07 min/m
90 427 Leslie URESTI 849 01:32:58 120 558 00:09:53 2:28 sec/100m 124 617 00:07:27 56 235 00:42:15 14.2 m/hr 133 656 00:09:37 66 279 00:23:44 12:29 min/m
91 462 Elisa REINSMITH 459 01:34:43 92 419 00:09:08 2:17 sec/100m 102 502 00:05:14 109 519 00:51:38 11.6 m/hr 46 203 00:02:05 84 394 00:26:36 14:00 min/m
92 465 Callie BUTLER 73 01:34:47 30 133 00:08:00 2:00 sec/100m 95 450 00:04:52 101 478 00:50:01 12.0 m/hr 62 274 00:02:26 107 498 00:29:26 15:29 min/m
93 466 Tracie MILLER 832 01:34:49 127 606 00:10:21 2:35 sec/100m 72 350 00:04:05 81 382 00:46:25 12.9 m/hr 28 116 00:01:41 119 567 00:32:16 16:59 min/m
94 468 Jill BRANDT 391 01:34:53 45 210 00:08:21 2:05 sec/100m 103 506 00:05:15 94 445 00:48:24 12.4 m/hr 59 266 00:02:24 113 524 00:30:27 16:01 min/m
95 491 Lien NGUYEN-PHUOC 275 01:36:19 54 254 00:08:33 2:08 sec/100m 47 213 00:03:13 113 551 00:55:01 10.9 m/hr 16 70 00:01:30 96 454 00:28:01 14:44 min/m
96 494 Celia CASOLARI 418 01:36:28 68 307 00:08:45 2:11 sec/100m 73 355 00:04:07 104 489 00:50:22 11.9 m/hr 94 481 00:03:29 109 506 00:29:43 15:38 min/m
97 498 Lisa SINN 827 01:36:47 80 345 00:08:53 2:13 sec/100m 91 437 00:04:46 118 593 00:58:20 10.3 m/hr 60 271 00:02:26 52 219 00:22:21 11:45 min/m
98 502 Pooja BINDINGNAVELE 456 01:36:56 85 364 00:08:57 2:14 sec/100m 114 560 00:05:50 98 470 00:49:30 12.1 m/hr 91 456 00:03:19 106 496 00:29:18 15:25 min/m
99 509 Rochelle RANKIN 365 01:37:54 96 437 00:09:11 2:17 sec/100m 77 368 00:04:13 92 425 00:47:43 12.6 m/hr 81 394 00:02:57 125 608 00:33:47 17:47 min/m
100 513 Andy AGUIRRE 101 01:38:22 131 633 00:10:55 2:43 sec/100m 49 225 00:03:18 96 454 00:48:46 12.3 m/hr 75 339 00:02:45 122 576 00:32:37 17:10 min/m
101 517 Melissa FAVALORO 376 01:38:42 49 228 00:08:25 2:06 sec/100m 127 647 00:09:00 99 474 00:49:50 12.0 m/hr 120 594 00:04:57 83 385 00:26:28 13:56 min/m
102 518 Tracy FLORES 345 01:38:43 84 363 00:08:57 2:14 sec/100m 79 374 00:04:15 89 412 00:47:15 12.7 m/hr 103 524 00:03:52 128 616 00:34:21 18:04 min/m
103 522 Amy HAFEN 543 01:39:15 103 493 00:09:26 2:21 sec/100m 126 625 00:07:43 105 493 00:50:31 11.9 m/hr 117 577 00:04:36 87 408 00:26:58 14:11 min/m
104 525 Jennifer SCHWANTES 319 01:39:25 55 256 00:08:34 2:08 sec/100m 67 330 00:03:54 103 487 00:50:17 11.9 m/hr 107 543 00:04:03 121 575 00:32:36 17:09 min/m
105 526 Ann-Marie LARSON 168 01:39:26 102 486 00:09:24 2:21 sec/100m 123 604 00:06:40 106 494 00:50:33 11.9 m/hr 90 455 00:03:19 108 500 00:29:28 15:30 min/m
106 527 Lisa DIMAALA 840 01:39:41 71 312 00:08:46 2:11 sec/100m 54 267 00:03:31 123 628 01:03:38 9.4 m/hr 49 211 00:02:07 44 171 00:21:37 11:23 min/m
107 533 Brandi HOWARD 697 01:40:37 74 327 00:08:49 2:12 sec/100m 108 528 00:05:29 120 599 00:59:10 10.1 m/hr 102 522 00:03:51 61 259 00:23:15 12:14 min/m
108 534 Jessica LEWIS 488 01:40:37 89 413 00:09:06 2:16 sec/100m 96 461 00:04:58 97 465 00:49:17 12.2 m/hr 124 628 00:06:02 114 536 00:31:11 16:25 min/m
109 538 Lizette GARZA 854 01:40:57 65 295 00:08:42 2:10 sec/100m 93 442 00:04:49 107 516 00:51:30 11.6 m/hr 110 561 00:04:16 115 550 00:31:38 16:39 min/m
110 541 Irene HINOJOSA 596 01:41:07 119 556 00:09:52 2:28 sec/100m 112 557 00:05:49 117 583 00:57:20 10.5 m/hr 73 329 00:02:41 79 351 00:25:23 13:21 min/m
111 544 Kyle DURAN 703 01:41:18 111 528 00:09:43 2:25 sec/100m 52 238 00:03:21 91 421 00:47:30 12.6 m/hr 118 585 00:04:45 129 627 00:35:57 18:55 min/m
112 546 Heather MARCHANT 159 01:41:23 106 509 00:09:32 2:23 sec/100m 106 524 00:05:25 29 79 00:37:38 15.9 m/hr 127 632 00:06:32 133 664 00:42:15 22:14 min/m
113 548 Tammie WARREN 202 01:41:25 129 620 00:10:38 2:39 sec/100m 99 489 00:05:10 121 604 00:59:29 10.1 m/hr 53 234 00:02:13 67 288 00:23:54 12:34 min/m
114 559 Nickeya LAYCOCK 403 01:43:20 62 287 00:08:40 2:10 sec/100m 66 327 00:03:52 115 564 00:55:33 10.8 m/hr 86 431 00:03:12 117 562 00:32:00 16:50 min/m
115 560 Anna STROH 536 01:43:43 86 374 00:08:59 2:14 sec/100m 74 358 00:04:09 112 542 00:53:23 11.2 m/hr 130 646 00:07:23 110 508 00:29:47 15:41 min/m
116 569 Natalie DELEON 221 01:44:43 36 150 00:08:04 2:01 sec/100m 100 496 00:05:13 114 560 00:55:25 10.8 m/hr 104 525 00:03:53 118 564 00:32:06 16:54 min/m
117 585 Kim PACANINS 100 01:47:19 67 304 00:08:44 2:11 sec/100m 107 527 00:05:29 108 517 00:51:31 11.6 m/hr 132 654 00:09:34 116 560 00:31:58 16:49 min/m
118 593 Jena BENAVENTE 674 01:47:42 77 334 00:08:51 2:12 sec/100m 81 378 00:04:18 124 629 01:03:42 9.4 m/hr 42 190 00:02:03 100 475 00:28:47 15:08 min/m
119 597 Erin STINSON 27 01:48:05 81 347 00:08:53 2:13 sec/100m 80 375 00:04:16 111 539 00:53:12 11.3 m/hr 95 487 00:03:35 132 639 00:38:07 20:03 min/m
120 602 Joanna MALTSBERGER 395 01:48:38 79 337 00:08:51 2:12 sec/100m 59 292 00:03:39 125 630 01:03:45 9.4 m/hr 57 263 00:02:23 111 510 00:29:58 15:46 min/m
121 604 Stacy CLARK 264 01:48:52 46 212 00:08:21 2:05 sec/100m 78 370 00:04:14 45 153 00:39:58 15.0 m/hr 67 288 00:02:30 134 668 00:53:47 28:18 min/m
122 613 Brandi PARSON 589 01:51:47 112 534 00:09:44 2:26 sec/100m 129 652 00:10:02 119 598 00:59:04 10.2 m/hr 106 535 00:03:58 104 483 00:28:56 15:13 min/m
123 614 Trang LAM 507 01:51:52 105 504 00:09:28 2:22 sec/100m 113 559 00:05:50 116 576 00:56:50 10.6 m/hr 128 637 00:06:39 123 585 00:33:03 17:24 min/m
124 616 Tzu-Ying Jean CHEN 91 01:52:00 104 499 00:09:27 2:21 sec/100m 115 563 00:05:52 110 537 00:53:03 11.3 m/hr 134 658 00:10:29 124 587 00:33:08 17:26 min/m
125 620 Vinu SISTA 126 01:55:06 72 317 00:08:46 2:11 sec/100m 130 657 00:12:25 126 632 01:04:09 9.4 m/hr 113 569 00:04:22 78 349 00:25:22 13:21 min/m
126 623 Richi CHAUDHRY 355 01:55:13 73 322 00:08:47 2:11 sec/100m 132 659 00:12:34 122 610 01:00:27 9.9 m/hr 131 651 00:08:04 77 346 00:25:20 13:20 min/m
127 624 Priscilla CERVANTEZ 677 01:55:52 118 554 00:09:52 2:28 sec/100m 58 285 00:03:37 130 637 01:05:28 9.2 m/hr 80 392 00:02:57 126 610 00:33:57 17:52 min/m
128 630 Laura GUTIERREZ 732 01:58:26 108 516 00:09:36 2:24 sec/100m 83 397 00:04:25 132 645 01:08:07 8.8 m/hr 44 195 00:02:04 127 612 00:34:12 18:00 min/m
129 631 Sheetal PATEL 573 01:58:44 70 311 00:08:46 2:11 sec/100m 131 658 00:12:28 128 634 01:04:13 9.3 m/hr 116 576 00:04:35 99 473 00:28:41 15:06 min/m
130 645 Erika GONZALES 574 02:01:26 110 525 00:09:41 2:25 sec/100m 133 660 00:12:48 131 639 01:06:27 9.0 m/hr 99 512 00:03:47 98 472 00:28:41 15:06 min/m
131 646 Juliette VILLAREAL 567 02:01:29 113 535 00:09:45 2:26 sec/100m 134 661 00:14:00 129 636 01:05:11 9.2 m/hr 101 521 00:03:50 97 471 00:28:41 15:05 min/m
132 654 Lori LEHMBERG 273 02:03:52 134 653 00:11:48 2:57 sec/100m 125 619 00:07:30 127 633 01:04:11 9.3 m/hr 93 474 00:03:26 130 633 00:36:55 19:26 min/m
133 655 Bri LATSHA 757 02:04:10 107 514 00:09:34 2:23 sec/100m 128 648 00:09:08 133 648 01:09:33 8.6 m/hr 129 643 00:06:58 103 480 00:28:55 15:13 min/m
134 670 Clare HORADAM 820 02:19:31 95 430 00:09:10 2:17 sec/100m 105 518 00:05:21 134 665 01:23:58 7.1 m/hr 89 450 00:03:18 131 638 00:37:42 19:50 min/m
Ages 40 - 44
1 11 Leonor BYRNE 351 01:02:16 2 10 00:06:50 1:42 sec/100m 1 18 00:01:30 1 23 00:33:36 17.9 m/hr 6 39 00:01:17 5 56 00:19:01 10:00 min/m
2 14 Sue EDWARDS 316 01:02:48 40 227 00:08:25 2:06 sec/100m 12 61 00:02:03 2 25 00:33:38 17.8 m/hr 8 59 00:01:26 1 22 00:17:14 9:04 min/m
3 39 Lori TILLERY 298 01:07:27 7 44 00:07:33 1:53 sec/100m 16 85 00:02:18 7 56 00:36:36 16.4 m/hr 2 13 00:01:04 9 74 00:19:54 10:28 min/m
4 41 Shane HESLIN 133 01:07:33 15 76 00:07:46 1:56 sec/100m 3 24 00:01:37 5 45 00:35:55 16.7 m/hr 10 101 00:01:39 13 111 00:20:35 10:50 min/m
5 56 Edith ELLORIMO 366 01:09:25 23 138 00:08:01 2:00 sec/100m 32 173 00:02:56 6 49 00:36:08 16.6 m/hr 11 106 00:01:40 14 117 00:20:39 10:52 min/m
6 66 Jenn KILGORE 181 01:10:26 32 174 00:08:12 2:03 sec/100m 2 23 00:01:34 9 73 00:37:19 16.1 m/hr 1 8 00:01:02 34 213 00:22:17 11:43 min/m
7 67 Jennifer FINDLAY 470 01:10:41 19 98 00:07:51 1:57 sec/100m 27 147 00:02:43 17 124 00:39:11 15.3 m/hr 12 111 00:01:40 7 59 00:19:13 10:07 min/m
8 70 Katherine NICKLEBUR 450 01:10:59 4 32 00:07:24 1:51 sec/100m 19 92 00:02:22 23 159 00:40:11 14.9 m/hr 20 153 00:01:54 6 57 00:19:06 10:03 min/m
9 71 Anne SMITH 138 01:11:04 1 9 00:06:50 1:42 sec/100m 42 236 00:03:20 19 135 00:39:29 15.2 m/hr 17 145 00:01:51 8 66 00:19:32 10:17 min/m
10 79 Holly PHILLIPPI 751 01:11:42 17 85 00:07:50 1:57 sec/100m 50 291 00:03:39 8 60 00:36:48 16.3 m/hr 18 146 00:01:51 22 164 00:21:33 11:20 min/m
11 83 Micki BURNS 195 01:11:53 3 25 00:07:18 1:49 sec/100m 48 277 00:03:33 14 102 00:38:38 15.5 m/hr 41 226 00:02:11 10 89 00:20:11 10:37 min/m
12 84 Rita JONAS 205 01:12:09 73 463 00:09:20 2:20 sec/100m 6 40 00:01:46 3 26 00:33:39 17.8 m/hr 42 229 00:02:12 58 339 00:25:11 13:15 min/m
13 85 Janine STOTZ 153 01:12:32 58 377 00:08:59 2:14 sec/100m 4 31 00:01:42 10 91 00:38:15 15.7 m/hr 4 31 00:01:15 35 215 00:22:19 11:45 min/m
14 97 Kathryn PERNOUD 618 01:13:29 6 42 00:07:32 1:53 sec/100m 15 82 00:02:16 16 117 00:38:55 15.4 m/hr 69 415 00:03:04 24 176 00:21:40 11:24 min/m
15 100 Karen LANASA 812 01:13:40 11 67 00:07:45 1:56 sec/100m 5 39 00:01:46 18 129 00:39:18 15.3 m/hr 45 236 00:02:14 37 227 00:22:35 11:53 min/m
16 106 Carie MORALES 413 01:13:45 14 73 00:07:46 1:56 sec/100m 18 90 00:02:21 26 183 00:40:48 14.7 m/hr 3 30 00:01:15 23 165 00:21:34 11:21 min/m
17 109 Shakti DALAL 425 01:14:23 45 272 00:08:37 2:09 sec/100m 26 145 00:02:43 11 94 00:38:26 15.6 m/hr 55 334 00:02:43 28 192 00:21:53 11:31 min/m
18 113 Faye JACKSON 370 01:14:30 13 72 00:07:46 1:56 sec/100m 21 98 00:02:24 27 185 00:40:49 14.7 m/hr 16 137 00:01:47 25 179 00:21:42 11:25 min/m
19 120 Arpinee SARKISIAN 801 01:15:04 25 142 00:08:02 2:00 sec/100m 39 217 00:03:16 30 194 00:41:11 14.6 m/hr 32 184 00:02:02 12 108 00:20:31 10:48 min/m
20 124 Elizabeth BERNAL 371 01:15:26 37 209 00:08:21 2:05 sec/100m 9 50 00:01:54 50 321 00:44:43 13.4 m/hr 58 350 00:02:47 2 25 00:17:39 9:17 min/m
21 133 Julia HERMANN 225 01:15:59 47 279 00:08:38 2:09 sec/100m 13 62 00:02:03 20 154 00:39:59 15.0 m/hr 23 162 00:01:58 42 261 00:23:18 12:16 min/m
22 137 Sara PATTERSON 373 01:16:15 31 173 00:08:12 2:03 sec/100m 44 256 00:03:28 24 162 00:40:19 14.9 m/hr 56 335 00:02:43 21 159 00:21:31 11:19 min/m
23 145 Leanna THOMPSON 605 01:17:02 5 37 00:07:30 1:52 sec/100m 11 59 00:02:03 45 293 00:43:38 13.8 m/hr 49 290 00:02:30 17 143 00:21:20 11:13 min/m
24 149 Jennifer GALYSH 22 01:17:25 33 176 00:08:12 2:03 sec/100m 51 294 00:03:39 12 95 00:38:27 15.6 m/hr 64 388 00:02:56 50 300 00:24:08 12:42 min/m
25 157 Susan LAMBERT 388 01:17:51 82 502 00:09:28 2:22 sec/100m 8 45 00:01:50 25 167 00:40:26 14.8 m/hr 34 188 00:02:02 49 294 00:24:02 12:39 min/m
26 160 Kelly GIN 451 01:18:15 36 199 00:08:18 2:04 sec/100m 34 183 00:03:01 52 347 00:45:15 13.3 m/hr 59 363 00:02:50 4 45 00:18:49 9:54 min/m
27 166 Natalie MILLER 66 01:18:21                                    
28 176 Lauren ZIFF 630 01:18:52 21 113 00:07:54 1:58 sec/100m 41 235 00:03:20 37 238 00:42:17 14.2 m/hr 72 435 00:03:13 31 203 00:22:06 11:38 min/m
29 178 Bonnie GUAJARDO 311 01:18:56 26 146 00:08:03 2:00 sec/100m 30 169 00:02:54 22 158 00:40:10 14.9 m/hr 25 169 00:01:59 64 366 00:25:48 13:34 min/m
30 180 Kristie BERNAL 78 01:19:01 56 350 00:08:54 2:13 sec/100m 31 172 00:02:55 29 193 00:41:11 14.6 m/hr 97 559 00:04:16 26 180 00:21:43 11:26 min/m
31 183 Melissa NGUYEN 250 01:19:15 18 97 00:07:51 1:57 sec/100m 46 264 00:03:29 4 32 00:34:19 17.5 m/hr 114 664 00:12:32 16 132 00:21:02 11:04 min/m
32 184 Victoria SANCHEZ 838 01:19:15 61 391 00:09:02 2:15 sec/100m 61 383 00:04:20 21 157 00:40:09 14.9 m/hr 96 558 00:04:16 20 151 00:21:25 11:16 min/m
33 188 Nicole KERCHMAR 861 01:19:24 114 667 00:59:08 14:47 sec/100m     -00:46:58 46 300 00:43:59 13.6 m/hr 67 405 00:03:00 11 91 00:20:14 10:39 min/m
34 189 Erika BENFIELD 372 01:19:26 27 163 00:08:08 2:02 sec/100m 23 122 00:02:31 15 113 00:38:53 15.4 m/hr 27 175 00:02:00 78 448 00:27:52 14:40 min/m
35 193 Angela ALEXANDER 293 01:19:48 62 392 00:09:02 2:15 sec/100m 29 155 00:02:48 39 252 00:42:42 14.0 m/hr 66 401 00:02:59 33 211 00:22:15 11:42 min/m
36 203 Leslie ZAMORA 36 01:20:10 102 582 00:10:07 2:31 sec/100m 28 149 00:02:44 62 388 00:46:37 12.9 m/hr 28 178 00:02:01 3 38 00:18:40 9:49 min/m
37 207 Shayne BYRNE 776 01:20:27 41 230 00:08:27 2:06 sec/100m 62 392 00:04:22 31 198 00:41:20 14.5 m/hr 106 606 00:05:19 15 128 00:20:56 11:01 min/m
38 209 Erin DEROSA 83 01:20:29 100 573 00:10:02 2:30 sec/100m 20 97 00:02:24 44 284 00:43:29 13.8 m/hr 48 257 00:02:20 32 209 00:22:12 11:41 min/m
39 213 Olivia MALOLES 581 01:20:35 65 402 00:09:05 2:16 sec/100m 45 262 00:03:29 41 263 00:43:00 13.9 m/hr 30 181 00:02:02 40 246 00:22:58 12:05 min/m
40 215 Bethany PETERSON 55 01:20:39 39 226 00:08:25 2:06 sec/100m 37 208 00:03:10 43 272 00:43:10 13.9 m/hr 38 207 00:02:06 46 280 00:23:46 12:30 min/m
41 220 Salli COBB 196 01:20:53 70 458 00:09:18 2:19 sec/100m 7 44 00:01:50 34 216 00:41:50 14.3 m/hr 19 149 00:01:52 68 377 00:26:01 13:41 min/m
42 223 Emmanuelle CAHANE 555 01:21:10 24 140 00:08:01 2:00 sec/100m 33 176 00:02:57 28 187 00:40:50 14.7 m/hr 50 293 00:02:30 72 403 00:26:48 14:06 min/m
43 256 Dioneia JIMENEZ 103 01:22:31 53 331 00:08:50 2:12 sec/100m 94 596 00:06:31 32 207 00:41:37 14.4 m/hr 61 376 00:02:54 38 230 00:22:37 11:54 min/m
44 259 Carmen BOYER 558 01:22:39 55 349 00:08:54 2:13 sec/100m 58 333 00:03:55 38 250 00:42:40 14.1 m/hr 52 308 00:02:34 52 317 00:24:34 12:55 min/m
45 279 Cameron ARMSTRONG 247 01:23:34 12 69 00:07:45 1:56 sec/100m 79 475 00:05:05 13 99 00:38:34 15.6 m/hr 98 584 00:04:44 74 428 00:27:24 14:25 min/m
46 291 Sandrine CLARDY 119 01:24:11 50 297 00:08:42 2:10 sec/100m 70 426 00:04:40 60 368 00:45:50 13.1 m/hr 37 206 00:02:06 39 240 00:22:51 12:01 min/m
47 298 Melissa IBARRA 10 01:24:51 38 215 00:08:23 2:05 sec/100m 43 251 00:03:27 53 354 00:45:21 13.2 m/hr 46 239 00:02:14 62 354 00:25:24 13:22 min/m
48 309 Jessica VASAN 192 01:25:30 81 498 00:09:27 2:21 sec/100m 38 209 00:03:10 48 317 00:44:38 13.4 m/hr 77 461 00:03:22 54 325 00:24:51 13:04 min/m
49 329 Kimberly YOUNG 627 01:26:19 8 50 00:07:38 1:54 sec/100m 99 605 00:06:47 64 394 00:46:48 12.8 m/hr 84 498 00:03:40 18 148 00:21:24 11:15 min/m
50 332 Jessica TOOTLE 339 01:26:22 9 54 00:07:40 1:55 sec/100m 100 606 00:06:52 63 391 00:46:44 12.8 m/hr 83 496 00:03:40 19 149 00:21:24 11:16 min/m
51 334 Holly Calhoun WALKER 330 01:26:25 22 130 00:07:59 1:59 sec/100m 71 429 00:04:43 75 460 00:49:03 12.2 m/hr 63 385 00:02:55 27 181 00:21:43 11:26 min/m
52 346 Shelly CURNUTT 847 01:26:45 59 383 00:09:00 2:15 sec/100m 72 431 00:04:44 40 262 00:42:58 14.0 m/hr 93 549 00:04:09 65 370 00:25:51 13:36 min/m
53 352 Karen ENGATES 433 01:27:16 35 192 00:08:15 2:03 sec/100m 35 193 00:03:05 58 366 00:45:46 13.1 m/hr 35 192 00:02:03 80 456 00:28:04 14:46 min/m
54 356 Marcelina MORALES 61 01:27:29 60 387 00:09:01 2:15 sec/100m 24 134 00:02:36 74 448 00:48:28 12.4 m/hr 5 36 00:01:16 69 380 00:26:05 13:44 min/m
55 362 Erica SERRANO 146 01:28:12 74 469 00:09:21 2:20 sec/100m 10 53 00:01:59 69 409 00:47:08 12.7 m/hr 7 51 00:01:22 83 464 00:28:19 14:54 min/m
56 364 Teresa CHAO 139 01:28:30 98 567 00:09:57 2:29 sec/100m 52 297 00:03:41 33 213 00:41:45 14.4 m/hr 31 182 00:02:02 93 532 00:31:04 16:21 min/m
57 370 Susan MILLS 256 01:28:54 77 479 00:09:23 2:20 sec/100m 25 142 00:02:42 59 367 00:45:49 13.1 m/hr 54 323 00:02:38 84 465 00:28:20 14:54 min/m
58 371 Karla FRAZZINI 650 01:29:08 16 82 00:07:48 1:57 sec/100m 40 222 00:03:17 54 357 00:45:29 13.2 m/hr 105 604 00:05:17 73 420 00:27:15 14:20 min/m
59 372 Julie LESTOURGEON 611 01:29:10 28 164 00:08:08 2:02 sec/100m 86 549 00:05:44 65 399 00:46:51 12.8 m/hr 81 480 00:03:28 55 328 00:24:56 13:07 min/m
60 378 Erica Jane CHEATHAM 815 01:29:28 10 64 00:07:44 1:56 sec/100m 78 466 00:05:00 66 404 00:46:57 12.8 m/hr 107 611 00:05:29 51 308 00:24:16 12:46 min/m
61 383 Melanie HUTZLER 553 01:29:34 92 542 00:09:46 2:26 sec/100m 67 413 00:04:33 56 364 00:45:45 13.1 m/hr 60 371 00:02:52 71 392 00:26:35 13:59 min/m
62 386 Victoria LUNA 363 01:29:37 30 172 00:08:12 2:03 sec/100m 55 307 00:03:45 86 502 00:50:51 11.8 m/hr 9 74 00:01:31 59 345 00:25:16 13:18 min/m
63 388 Elena SKAGGS 657 01:29:52 29 169 00:08:11 2:02 sec/100m 87 551 00:05:46 67 405 00:46:57 12.8 m/hr 70 426 00:03:09 63 365 00:25:47 13:34 min/m
64 391 Melissa WOODWARD 314 01:29:55 64 400 00:09:04 2:16 sec/100m 84 539 00:05:37 47 304 00:44:10 13.6 m/hr 36 205 00:02:05 85 482 00:28:56 15:13 min/m
65 392 Danette FJERSTAD 263 01:29:58 43 255 00:08:33 2:08 sec/100m 47 270 00:03:31 73 446 00:48:26 12.4 m/hr 21 158 00:01:56 76 432 00:27:30 14:28 min/m
66 394 Melissa SALAZAR 701 01:30:00 51 300 00:08:43 2:10 sec/100m 65 406 00:04:30 35 221 00:41:55 14.3 m/hr 109 614 00:05:39 88 493 00:29:11 15:21 min/m
67 406 Lori STEINBARGER 505 01:31:11 113 662 00:12:54 3:13 sec/100m 82 500 00:05:13 57 365 00:45:45 13.1 m/hr 79 469 00:03:25 47 284 00:23:52 12:33 min/m
68 417 Neetee GADGIL 744 01:31:46 91 541 00:09:46 2:26 sec/100m 93 592 00:06:20 36 230 00:42:05 14.3 m/hr 71 429 00:03:11 90 522 00:30:22 15:59 min/m
69 421 Jaime KEY 315 01:32:42 63 398 00:09:04 2:16 sec/100m 83 510 00:05:20 84 484 00:50:10 12.0 m/hr 26 170 00:01:59 70 382 00:26:08 13:45 min/m
70 423 Amy BROWN 730 01:32:48 44 267 00:08:36 2:09 sec/100m 66 409 00:04:32 61 381 00:46:23 12.9 m/hr 29 179 00:02:01 94 538 00:31:14 16:26 min/m
71 424 Stephanie APOLINAR 836 01:32:49 96 551 00:09:50 2:27 sec/100m 104 618 00:07:29 77 463 00:49:16 12.2 m/hr 53 309 00:02:34 45 273 00:23:38 12:26 min/m
72 433 Lizette BUNN 510 01:33:09 89 537 00:09:45 2:26 sec/100m 109 634 00:08:02 76 461 00:49:08 12.2 m/hr 92 548 00:04:08 30 202 00:22:04 11:37 min/m
73 444 Ethel KRUSE 236 01:33:32 95 550 00:09:49 2:27 sec/100m 90 567 00:05:54 78 468 00:49:26 12.1 m/hr 104 601 00:05:10 41 256 00:23:11 12:12 min/m
74 446 Kara KOTLARZ 453 01:33:39 54 346 00:08:53 2:13 sec/100m 57 328 00:03:52 42 265 00:43:04 13.9 m/hr 113 655 00:09:37 81 460 00:28:12 14:50 min/m
75 447 Nicole DE LOS SANTOS 323 01:33:41 76 477 00:09:22 2:20 sec/100m 77 463 00:04:59 83 482 00:50:07 12.0 m/hr 87 515 00:03:48 60 352 00:25:23 13:21 min/m
76 448 Chelsi OESTREICH 629 01:33:42 57 370 00:08:58 2:14 sec/100m 54 303 00:03:43 87 507 00:51:03 11.8 m/hr 15 127 00:01:45 82 461 00:28:12 14:50 min/m
77 449 Elizabeth KEELER 322 01:33:43 79 491 00:09:25 2:21 sec/100m 76 462 00:04:59 82 480 00:50:04 12.0 m/hr 88 520 00:03:50 61 353 00:25:23 13:21 min/m
78 455 Natalie BOCK 283 01:34:09 90 539 00:09:46 2:26 sec/100m 49 287 00:03:37 92 563 00:55:27 10.8 m/hr 14 119 00:01:42 44 272 00:23:35 12:24 min/m
79 460 Tannia VALVERDE 785 01:34:34 34 190 00:08:15 2:03 sec/100m 60 359 00:04:09 49 318 00:44:39 13.4 m/hr 73 440 00:03:14 104 614 00:34:15 18:02 min/m
80 464 Kelly KELLAR 115 01:34:45 20 105 00:07:53 1:58 sec/100m 98 603 00:06:39 51 327 00:44:48 13.4 m/hr 91 542 00:04:02 95 540 00:31:21 16:30 min/m
81 467 Leighanne GOLDSTEIN 177 01:34:50 69 429 00:09:10 2:17 sec/100m 56 308 00:03:45 79 473 00:49:48 12.0 m/hr 68 406 00:03:00 86 488 00:29:05 15:18 min/m
82 470 Silvestra HERRADA 198 01:35:08 112 660 00:12:35 3:08 sec/100m 59 354 00:04:07 55 361 00:45:38 13.1 m/hr 24 166 00:01:59 92 529 00:30:46 16:11 min/m
83 476 Erykah MORENO-SALINAS 829 01:35:26 94 548 00:09:49 2:27 sec/100m 88 561 00:05:51 88 530 00:52:11 11.5 m/hr 57 349 00:02:47 53 324 00:24:46 13:02 min/m
84 477 Melissa GARCIA 562 01:35:27 42 242 00:08:31 2:07 sec/100m 101 608 00:06:53 91 549 00:54:29 11.0 m/hr 39 214 00:02:08 43 265 00:23:24 12:19 min/m
85 481 Elizabeth KARRIAGA 835 01:35:42 78 481 00:09:23 2:20 sec/100m 95 597 00:06:32 90 545 00:54:09 11.1 m/hr 75 448 00:03:17 36 216 00:22:19 11:45 min/m
86 485 Kelly BARTON 702 01:36:03 48 283 00:08:40 2:10 sec/100m 73 434 00:04:45 71 441 00:48:19 12.4 m/hr 103 599 00:05:07 87 491 00:29:10 15:21 min/m
87 489 Linda MOLINA 480 01:36:17 99 569 00:09:58 2:29 sec/100m 107 630 00:07:53 72 443 00:48:21 12.4 m/hr 100 589 00:04:53 57 338 00:25:10 13:15 min/m
88 490 Kristin BUSSEY-SMITH 862 01:36:19 84 511 00:09:33 2:23 sec/100m 110 637 00:08:12 68 406 00:46:59 12.8 m/hr 85 502 00:03:42 77 447 00:27:51 14:39 min/m
89 503 Virginia DOWNING 696 01:36:57 75 470 00:09:21 2:20 sec/100m 53 302 00:03:42 85 485 00:50:11 12.0 m/hr 33 186 00:02:02 96 552 00:31:39 16:39 min/m
90 506 Maria Conchita PEDRAZA 771 01:37:52 49 286 00:08:40 2:10 sec/100m 69 423 00:04:37 103 606 00:59:35 10.1 m/hr 65 390 00:02:57 29 200 00:22:01 11:35 min/m
91 523 Jennifer PAWLING 56 01:39:16 109 634 00:10:56 2:44 sec/100m 75 453 00:04:56 80 476 00:49:54 12.0 m/hr 90 538 00:04:00 89 501 00:29:28 15:30 min/m
92 549 Crystal SCULLION 180 01:41:32 108 628 00:10:44 2:41 sec/100m 81 485 00:05:09 102 605 00:59:30 10.1 m/hr 43 232 00:02:12 48 287 00:23:54 12:34 min/m
93 562 Cari MAYRGUNDTER 529 01:44:09 103 584 00:10:07 2:31 sec/100m 85 547 00:05:41 101 597 00:58:33 10.2 m/hr 86 509 00:03:47 67 375 00:25:59 13:40 min/m
94 567 Shannon PIERCE 590 01:44:36 71 459 00:09:18 2:19 sec/100m 14 77 00:02:14 93 566 00:55:38 10.8 m/hr 89 532 00:03:57 102 594 00:33:27 17:36 min/m
95 576 Brooke MCDAVITT 485 01:45:28 68 424 00:09:09 2:17 sec/100m 103 614 00:07:17 70 437 00:48:09 12.5 m/hr 22 160 00:01:58 109 643 00:38:53 20:28 min/m
96 578 Caroline LONG 242 01:45:35 46 277 00:08:38 2:09 sec/100m 17 89 00:02:19 104 616 01:01:47 9.7 m/hr 40 225 00:02:11 91 527 00:30:38 16:07 min/m
97 581 Sanitra HURD 715 01:46:38 97 559 00:09:53 2:28 sec/100m 111 638 00:08:17 96 581 00:57:07 10.5 m/hr 76 459 00:03:20 79 451 00:27:57 14:43 min/m
98 582 Christina TAYLOR 583 01:47:02 52 324 00:08:48 2:12 sec/100m 36 202 00:03:09 97 582 00:57:11 10.5 m/hr 13 117 00:01:41 106 628 00:36:12 19:03 min/m
99 587 Lorena MORROW 700 01:47:31 111 639 00:11:12 2:48 sec/100m 106 626 00:07:45 99 590 00:57:49 10.4 m/hr 74 442 00:03:14 75 431 00:27:29 14:27 min/m
100 589 Anna NORRIS 851 01:47:35 83 505 00:09:29 2:22 sec/100m 68 420 00:04:36 89 544 00:53:45 11.2 m/hr 112 647 00:07:27 98 566 00:32:16 16:58 min/m
101 590 Rachel WALKER 651 01:47:37 86 519 00:09:37 2:24 sec/100m 64 404 00:04:29 100 592 00:57:50 10.4 m/hr 78 466 00:03:23 97 565 00:32:15 16:58 min/m
102 594 Belinda COLOMBO 99 01:47:48 93 547 00:09:49 2:27 sec/100m 63 399 00:04:26 98 589 00:57:47 10.4 m/hr 80 473 00:03:25 99 570 00:32:18 17:00 min/m
103 603 Jenny PLACETTE 527 01:48:48 105 590 00:10:13 2:33 sec/100m 91 575 00:06:00 81 479 00:50:02 12.0 m/hr 82 490 00:03:37 110 645 00:38:55 20:29 min/m
104 609 Michelle MILLER 265 01:50:47 66 412 00:09:06 2:16 sec/100m 74 444 00:04:50 95 580 00:57:02 10.5 m/hr 102 597 00:05:05 105 618 00:34:43 18:16 min/m
105 615 Kazuki SHIN 156 01:51:59 80 495 00:09:26 2:21 sec/100m 89 564 00:05:53 94 577 00:56:51 10.6 m/hr 111 639 00:06:39 101 588 00:33:08 17:26 min/m
106 627 Alpa PATEL 14 01:56:33 67 420 00:09:08 2:17 sec/100m 113 649 00:09:23 109 646 01:08:11 8.8 m/hr 99 586 00:04:45 56 335 00:25:04 13:11 min/m
107 634 Angie VALDERRAMA 473 01:59:01 106 604 00:10:20 2:35 sec/100m 97 602 00:06:39 111 654 01:10:17 8.5 m/hr 110 622 00:05:49 66 372 00:25:55 13:38 min/m
108 647 Ruby TREVINO 447 02:01:32 85 512 00:09:33 2:23 sec/100m 96 600 00:06:38 108 644 01:07:20 8.9 m/hr 95 557 00:04:15 103 603 00:33:43 17:44 min/m
109 649 Jennifer MARTINEZ 780 02:02:40 110 638 00:11:04 2:46 sec/100m 105 622 00:07:32 105 617 01:01:48 9.7 m/hr 44 233 00:02:13 112 653 00:40:01 21:03 min/m
110 650 Corazon AGUILAR 679 02:03:05 104 586 00:10:08 2:32 sec/100m 102 611 00:07:05 110 652 01:10:11 8.5 m/hr 51 300 00:02:32 100 586 00:33:07 17:25 min/m
111 652 Belinda GALLEGOS 30 02:03:46 72 462 00:09:19 2:19 sec/100m 108 633 00:08:02 107 643 01:07:11 8.9 m/hr 47 251 00:02:19 107 631 00:36:52 19:24 min/m
112 656 Daisy ESTRADA 579 02:04:57 107 607 00:10:21 2:35 sec/100m 92 580 00:06:06 106 635 01:04:21 9.3 m/hr 108 612 00:05:31 108 642 00:38:36 20:19 min/m
113 665 Laura TIERNAN 75 02:11:58 101 574 00:10:02 2:30 sec/100m 80 480 00:05:08 113 659 01:12:30 8.3 m/hr 62 382 00:02:55 114 662 00:41:21 21:46 min/m
114 666 Rebekah MELTON 551 02:14:43 88 532 00:09:44 2:26 sec/100m 112 639 00:08:29 112 656 01:11:37 8.4 m/hr 94 550 00:04:10 113 659 00:40:41 21:24 min/m
115 672 Loraine SANCHEZ 340 02:20:15 87 526 00:09:42 2:25 sec/100m 22 107 00:02:25 114 667 01:24:13 7.1 m/hr 101 595 00:04:57 111 646 00:38:56 20:29 min/m
Ages 45 - 49
1 22 Anne MOSQUEDA 234 01:04:59 84 568 00:09:58 2:29 sec/100m 2 21 00:01:33 2 19 00:33:01 18.2 m/hr 9 86 00:01:36 7 46 00:18:50 9:54 min/m
2 26 Jennifer BECKEY 34 01:05:27 37 253 00:08:33 2:08 sec/100m 3 25 00:01:38 3 34 00:34:26 17.4 m/hr 4 41 00:01:19 8 64 00:19:29 10:15 min/m
3 27 Rachel HEARD 3 01:05:40 1 4 00:06:35 1:38 sec/100m 16 125 00:02:32 4 36 00:34:42 17.3 m/hr 13 141 00:01:49 9 81 00:20:00 10:31 min/m
4 30 Victoria RODRIGUEZ 797 01:05:56 4 53 00:07:40 1:55 sec/100m 4 26 00:01:38 7 64 00:36:51 16.3 m/hr 2 21 00:01:12 4 37 00:18:33 9:45 min/m
5 34 Lisa WALKER 219 01:06:32 95 625 00:10:42 2:40 sec/100m 6 58 00:02:02 1 18 00:32:59 18.2 m/hr 18 174 00:02:00 6 44 00:18:49 9:54 min/m
6 49 Cheryl MONTGOMERY 193 01:08:20 6 70 00:07:46 1:56 sec/100m 11 80 00:02:16 16 125 00:39:11 15.3 m/hr 16 167 00:01:59 1 18 00:17:06 9:00 min/m
7 73 Andrea KASSEM 775 01:11:09 10 94 00:07:51 1:57 sec/100m 9 68 00:02:11 9 71 00:37:15 16.1 m/hr 33 281 00:02:28 20 144 00:21:22 11:15 min/m
8 81 Jeanne FRAGA 599 01:11:46 5 65 00:07:45 1:56 sec/100m 51 320 00:03:50 5 55 00:36:35 16.4 m/hr 35 294 00:02:30 19 133 00:21:04 11:05 min/m
9 90 Anissa DANTONIO 535 01:12:49 24 183 00:08:14 2:03 sec/100m 19 136 00:02:37 6 59 00:36:40 16.4 m/hr 88 590 00:04:53 13 100 00:20:23 10:43 min/m
10 91 Libby BARNETTE 517 01:12:57 9 89 00:07:50 1:57 sec/100m 15 123 00:02:32 14 118 00:38:56 15.4 m/hr 10 100 00:01:38 29 198 00:21:59 11:34 min/m
11 92 Vivienne SPY 278 01:13:04 2 35 00:07:28 1:52 sec/100m 5 52 00:01:56 20 155 00:40:00 15.0 m/hr 11 105 00:01:40 28 197 00:21:57 11:33 min/m
12 99 Kara FLOYD 142 01:13:40 13 108 00:07:53 1:58 sec/100m 8 67 00:02:10 35 224 00:41:58 14.3 m/hr 7 57 00:01:26 10 88 00:20:11 10:37 min/m
13 107 Heike MURPHY 45 01:13:45 3 52 00:07:40 1:55 sec/100m 35 221 00:03:17 25 182 00:40:47 14.7 m/hr 8 71 00:01:31 14 104 00:20:28 10:46 min/m
14 108 Hayley KAZEN 484 01:13:45 66 409 00:09:06 2:16 sec/100m 52 322 00:03:50 28 196 00:41:14 14.5 m/hr 5 44 00:01:20 3 34 00:18:14 9:36 min/m
15 122 Linh PETERSON 440 01:15:15 16 121 00:07:56 1:59 sec/100m 36 231 00:03:19 22 172 00:40:31 14.8 m/hr 19 196 00:02:04 22 147 00:21:24 11:15 min/m
16 128 Melissa CHESHIER 412 01:15:32 7 78 00:07:47 1:56 sec/100m 12 87 00:02:19 23 176 00:40:34 14.8 m/hr 6 50 00:01:22 38 269 00:23:29 12:21 min/m
17 148 Lisa STAUBS 693 01:17:16 82 529 00:09:43 2:25 sec/100m 45 279 00:03:34 12 97 00:38:32 15.6 m/hr 23 230 00:02:12 37 258 00:23:13 12:13 min/m
18 150 Michelle JONES 21 01:17:27 26 185 00:08:14 2:03 sec/100m 46 296 00:03:41 10 76 00:37:29 16.0 m/hr 54 373 00:02:53 51 337 00:25:08 13:13 min/m
19 152 Patricia RATCLIFF 788 01:17:32 25 184 00:08:14 2:03 sec/100m 72 469 00:05:01 11 90 00:38:13 15.7 m/hr 81 541 00:04:02 30 199 00:22:01 11:35 min/m
20 170 Adriana LOPEZ 762 01:18:34 80 522 00:09:39 2:24 sec/100m 17 129 00:02:34 13 101 00:38:37 15.5 m/hr 45 327 00:02:40 49 332 00:25:03 13:11 min/m
21 173 Norma LUCERO 104 01:18:42 48 325 00:08:48 2:12 sec/100m 48 300 00:03:42 26 186 00:40:49 14.7 m/hr 73 511 00:03:47 24 166 00:21:34 11:21 min/m
22 186 Kristyl SMITH 235 01:19:19 39 265 00:08:35 2:08 sec/100m 44 274 00:03:32 45 269 00:43:08 13.9 m/hr 34 285 00:02:29 23 160 00:21:32 11:20 min/m
23 190 Marlene TAMAROZZI 374 01:19:28 23 182 00:08:13 2:03 sec/100m 14 112 00:02:27 44 259 00:42:51 14.0 m/hr 79 539 00:04:00 27 195 00:21:55 11:32 min/m
24 196 Stacie OTTEN 222 01:19:54 85 571 00:09:59 2:29 sec/100m 1 20 00:01:33 34 218 00:41:51 14.3 m/hr 15 159 00:01:56 46 316 00:24:32 12:55 min/m
25 198 Erika VAN DER VLUGT 499 01:19:57 17 144 00:08:03 2:00 sec/100m 41 257 00:03:28 57 358 00:45:34 13.2 m/hr 25 237 00:02:14 15 116 00:20:37 10:51 min/m
26 199 Jennifer GARCIA 498 01:19:59 18 152 00:08:04 2:01 sec/100m 40 254 00:03:27 30 206 00:41:36 14.4 m/hr 42 320 00:02:37 44 307 00:24:14 12:45 min/m
27 201 Priscilla KING 799 01:20:05 20 157 00:08:06 2:01 sec/100m 20 139 00:02:38 33 212 00:41:43 14.4 m/hr 37 311 00:02:34 48 331 00:25:02 13:10 min/m
28 202 Liz YEOMAN 332 01:20:09 15 120 00:07:56 1:59 sec/100m 22 144 00:02:42 32 210 00:41:40 14.4 m/hr 46 332 00:02:42 50 336 00:25:07 13:13 min/m
29 205 Crystal UZQUIANO 327 01:20:17 40 273 00:08:37 2:09 sec/100m 31 179 00:02:59 49 308 00:44:16 13.5 m/hr 58 407 00:03:01 21 145 00:21:22 11:15 min/m
30 219 Sandra MARTINEZ-PEREZ 584 01:20:52 19 155 00:08:05 2:01 sec/100m 29 168 00:02:54 15 123 00:39:06 15.3 m/hr 68 477 00:03:27 65 422 00:27:18 14:22 min/m
31 221 Gina GALLEGOS 52 01:21:00 42 289 00:08:41 2:10 sec/100m 66 412 00:04:33 50 310 00:44:24 13.5 m/hr 59 413 00:03:03 12 96 00:20:17 10:40 min/m
32 230 Alicia FRANK 685 01:21:31 55 359 00:08:56 2:14 sec/100m 13 101 00:02:24 76 514 00:51:22 11.7 m/hr 1 20 00:01:11 2 24 00:17:36 9:15 min/m
33 232 Debbie ZAPATA 110 01:21:38 63 403 00:09:05 2:16 sec/100m 23 146 00:02:43 47 294 00:43:38 13.7 m/hr 76 530 00:03:56 31 210 00:22:14 11:42 min/m
34 234 Dolores ORNELAS 632 01:21:43 32 219 00:08:23 2:05 sec/100m 25 152 00:02:46 19 149 00:39:52 15.0 m/hr 53 369 00:02:52 69 446 00:27:47 14:37 min/m
35 235 Veronica ANDRADE 633 01:21:45 27 187 00:08:15 2:03 sec/100m 30 175 00:02:56 18 147 00:39:51 15.1 m/hr 55 378 00:02:54 68 445 00:27:47 14:37 min/m
36 244 Lori MOORE 760 01:22:05 45 310 00:08:45 2:11 sec/100m 10 79 00:02:15 29 200 00:41:23 14.5 m/hr 31 278 00:02:28 64 418 00:27:11 14:18 min/m
37 246 Bonnie MCCRACKEN 476 01:22:11 29 200 00:08:18 2:04 sec/100m 27 160 00:02:51 17 136 00:39:30 15.2 m/hr 51 364 00:02:51 71 468 00:28:39 15:04 min/m
38 250 Sharron LANKFORD 538 01:22:17 12 102 00:07:52 1:58 sec/100m 94 610 00:07:04 38 233 00:42:08 14.2 m/hr 84 555 00:04:14 16 127 00:20:56 11:01 min/m
39 252 Sharon SANCHEZ 789 01:22:22 47 320 00:08:47 2:11 sec/100m 33 194 00:03:05 54 335 00:44:57 13.3 m/hr 95 640 00:06:43 5 40 00:18:47 9:53 min/m
40 254 Mary Joy HAMISCH 539 01:22:25 8 79 00:07:47 1:56 sec/100m 24 150 00:02:45 42 251 00:42:42 14.0 m/hr 32 279 00:02:28 58 396 00:26:41 14:02 min/m
41 255 Caroline HAFLING 445 01:22:26 21 167 00:08:11 2:02 sec/100m 43 268 00:03:31 46 286 00:43:31 13.8 m/hr 12 113 00:01:41 55 359 00:25:31 13:26 min/m
42 262 Angela MEYER 419 01:22:46 52 339 00:08:52 2:13 sec/100m 7 65 00:02:06 48 295 00:43:41 13.7 m/hr 3 33 00:01:16 62 405 00:26:50 14:07 min/m
43 269 Sarah RIEGER 443 01:23:01 50 332 00:08:50 2:12 sec/100m 73 470 00:05:02 21 156 00:40:03 15.0 m/hr 91 603 00:05:14 40 282 00:23:50 12:32 min/m
44 272 Lora SAUCEDA 92 01:23:11 51 335 00:08:51 2:12 sec/100m 34 196 00:03:07 36 225 00:41:59 14.3 m/hr 41 318 00:02:36 57 393 00:26:36 14:00 min/m
45 275 Arcenia CUELLAR 860 01:23:22 44 306 00:08:45 2:11 sec/100m 54 337 00:03:56 61 396 00:46:50 12.8 m/hr 20 215 00:02:09 26 177 00:21:40 11:24 min/m
46 276 Laura SHELTON 163 01:23:25 91 610 00:10:24 2:36 sec/100m 18 135 00:02:36 27 188 00:40:52 14.7 m/hr 49 358 00:02:49 59 397 00:26:41 14:03 min/m
47 281 Linda HUBERT 749 01:23:36 69 432 00:09:11 2:17 sec/100m 88 550 00:05:45 40 241 00:42:24 14.1 m/hr 94 627 00:06:02 11 90 00:20:12 10:38 min/m
48 292 Thuy-Van STAFFORD 270 01:24:13 38 257 00:08:34 2:08 sec/100m 32 189 00:03:04 24 177 00:40:39 14.8 m/hr 60 418 00:03:06 73 476 00:28:47 15:09 min/m
49 293 Linda MARES 513 01:24:19                                    
50 312 Lisa RICHARDSON 309 01:25:39 57 371 00:08:58 2:14 sec/100m 28 164 00:02:54 52 326 00:44:47 13.4 m/hr 26 243 00:02:16 61 402 00:26:43 14:03 min/m
51 317 Melissa BAUMHOLTZ 514 01:25:52 35 234 00:08:27 2:06 sec/100m 77 488 00:05:10 60 395 00:46:48 12.8 m/hr 48 355 00:02:49 33 228 00:22:36 11:53 min/m
52 319 Susan ROWLAND 464 01:25:57 53 341 00:08:52 2:13 sec/100m 57 362 00:04:11 58 371 00:45:56 13.1 m/hr 52 365 00:02:51 43 297 00:24:04 12:40 min/m
53 325 Rachel PRATER 844 01:26:14 98 643 00:11:18 2:49 sec/100m 80 505 00:05:15 39 239 00:42:19 14.2 m/hr 21 217 00:02:10 52 340 00:25:11 13:15 min/m
54 326 Claudia PRADO 798 01:26:16 81 524 00:09:41 2:25 sec/100m 64 395 00:04:24 8 69 00:37:04 16.2 m/hr 64 447 00:03:15 87 557 00:31:51 16:45 min/m
55 331 Kathy BRADLEY 472 01:26:22 49 326 00:08:49 2:12 sec/100m 90 568 00:05:55 51 315 00:44:35 13.5 m/hr 80 540 00:04:01 35 249 00:23:01 12:07 min/m
56 341 Royanna PUEN 659 01:26:36 14 110 00:07:53 1:58 sec/100m 60 379 00:04:18 55 348 00:45:15 13.3 m/hr 75 529 00:03:55 53 342 00:25:11 13:15 min/m
57 342 Christina WELCH 85 01:26:37 11 95 00:07:51 1:57 sec/100m 70 465 00:05:00 43 256 00:42:47 14.0 m/hr 69 488 00:03:36 66 426 00:27:21 14:24 min/m
58 343 Kimberly VIDRINE 455 01:26:39 41 275 00:08:37 2:09 sec/100m 59 369 00:04:13 68 456 00:48:50 12.3 m/hr 78 533 00:03:57 17 129 00:21:00 11:03 min/m
59 348 Ana CALZADA 810 01:26:48 71 435 00:09:11 2:17 sec/100m 39 244 00:03:24 41 245 00:42:35 14.1 m/hr 89 591 00:04:54 60 401 00:26:42 14:03 min/m
60 358 Tonya STILWELL 612 01:27:35 22 179 00:08:13 2:03 sec/100m 84 521 00:05:24 31 209 00:41:39 14.4 m/hr 96 642 00:06:51 54 356 00:25:27 13:24 min/m
61 363 Norma MEDRANO 356 01:28:19 36 244 00:08:31 2:07 sec/100m 53 329 00:03:53 67 438 00:48:14 12.4 m/hr 14 147 00:01:51 56 367 00:25:48 13:34 min/m
62 366 Ann DOWNES 577 01:28:41 34 232 00:08:27 2:06 sec/100m 93 591 00:06:18 53 334 00:44:57 13.3 m/hr 97 645 00:07:20 25 170 00:21:37 11:22 min/m
63 376 Lisa HECT 404 01:29:28 33 220 00:08:24 2:06 sec/100m 58 365 00:04:11 78 525 00:51:59 11.5 m/hr 28 249 00:02:18 32 226 00:22:34 11:52 min/m
64 381 Tricia KUMRO 525 01:29:31 28 196 00:08:17 2:04 sec/100m 47 298 00:03:42 65 426 00:47:45 12.6 m/hr 92 616 00:05:45 42 292 00:24:00 12:38 min/m
65 385 Suling HOMSY 246 01:29:37 60 390 00:09:02 2:15 sec/100m 21 141 00:02:39 63 422 00:47:37 12.6 m/hr 61 420 00:03:06 63 417 00:27:10 14:18 min/m
66 390 Sharlean SCHAEFER 112 01:29:55 58 380 00:09:00 2:15 sec/100m 55 349 00:04:03 75 504 00:50:59 11.8 m/hr 17 173 00:02:00 41 283 00:23:50 12:33 min/m
67 397 Lisa GARCIA 634 01:30:06 30 205 00:08:20 2:05 sec/100m 89 565 00:05:53 66 433 00:48:00 12.5 m/hr 83 551 00:04:13 39 274 00:23:38 12:26 min/m
68 400 Lilia CANTU 661 01:30:36 79 520 00:09:38 2:24 sec/100m 26 157 00:02:49 62 413 00:47:17 12.7 m/hr 22 222 00:02:10 72 470 00:28:40 15:05 min/m
69 438 Tina ALLEN 276 01:33:24 90 598 00:10:18 2:34 sec/100m 37 233 00:03:19 56 356 00:45:28 13.2 m/hr 44 325 00:02:39 84 551 00:31:38 16:39 min/m
70 441 Mary STEED 277 01:33:30 89 596 00:10:17 2:34 sec/100m 86 526 00:05:28 37 232 00:42:08 14.2 m/hr 77 531 00:03:57 85 553 00:31:39 16:39 min/m
71 478 Emily NEUMANN 292 01:35:28 74 474 00:09:22 2:20 sec/100m 76 486 00:05:10 79 529 00:52:07 11.5 m/hr 85 564 00:04:18 45 315 00:24:29 12:53 min/m
72 486 Abbie WARD 817 01:36:11 62 401 00:09:05 2:16 sec/100m 38 243 00:03:23 70 483 00:50:10 12.0 m/hr 29 250 00:02:19 78 537 00:31:13 16:26 min/m
73 507 Karla GONZALEZ 626 01:37:53 65 406 00:09:05 2:16 sec/100m 42 263 00:03:29 74 503 00:50:57 11.8 m/hr 47 333 00:02:42 83 549 00:31:37 16:38 min/m
74 516 Linda CASTILLO 328 01:38:36 64 404 00:09:05 2:16 sec/100m 50 318 00:03:48 77 515 00:51:29 11.7 m/hr 74 517 00:03:49 74 523 00:30:23 15:59 min/m
75 521 Stacey GUYNES 528 01:39:06 87 577 00:10:04 2:31 sec/100m 87 546 00:05:41 90 596 00:58:33 10.2 m/hr 72 510 00:03:47 18 130 00:21:00 11:03 min/m
76 529 Christy LLOYD 171 01:39:57 86 576 00:10:04 2:31 sec/100m 67 427 00:04:40 72 500 00:50:50 11.8 m/hr 39 316 00:02:36 86 556 00:31:45 16:42 min/m
77 532 Tina STOGNER 243 01:40:10 67 410 00:09:06 2:16 sec/100m 92 590 00:06:18 69 459 00:49:02 12.2 m/hr 86 575 00:04:33 77 535 00:31:08 16:23 min/m
78 540 Kristina R. HEILMAN 288 01:41:06 31 206 00:08:20 2:05 sec/100m 96 627 00:07:49 89 578 00:56:55 10.5 m/hr 56 400 00:02:59 47 330 00:25:01 13:10 min/m
79 542 Kristy CALDWELL 280 01:41:12 61 395 00:09:03 2:15 sec/100m 71 468 00:05:01 91 601 00:59:20 10.1 m/hr 87 587 00:04:46 34 247 00:23:00 12:06 min/m
80 550 Joy ADEN GALAVIZ 212 01:41:57 96 627 00:10:42 2:40 sec/100m 98 640 00:08:39 73 501 00:50:50 11.8 m/hr 82 547 00:04:07 67 435 00:27:37 14:32 min/m
81 551 Samantha KARABINAS 48 01:42:03 77 515 00:09:35 2:23 sec/100m 61 381 00:04:20 83 548 00:54:28 11.0 m/hr 30 253 00:02:20 79 539 00:31:18 16:28 min/m
82 553 Terri THOMPSON 841 01:42:06 78 517 00:09:36 2:24 sec/100m 63 387 00:04:21 82 547 00:54:28 11.0 m/hr 27 244 00:02:17 81 542 00:31:22 16:30 min/m
83 554 Cyndy SUTTON 348 01:42:24 83 536 00:09:45 2:26 sec/100m 75 476 00:05:05 59 389 00:46:39 12.9 m/hr 38 312 00:02:34 97 641 00:38:18 20:09 min/m
84 561 Jill TAYLOR 705 01:43:47 68 417 00:09:08 2:17 sec/100m 74 472 00:05:03 84 553 00:55:18 10.8 m/hr 50 361 00:02:50 82 544 00:31:26 16:32 min/m
85 575 Martha VASQUEZ 38 01:45:23 100 655 00:11:52 2:58 sec/100m 95 616 00:07:24 80 538 00:53:08 11.3 m/hr 90 593 00:04:56 70 455 00:28:01 14:45 min/m
86 577 Deborah MASON 191 01:45:32 88 583 00:10:07 2:31 sec/100m 56 360 00:04:10 86 567 00:55:39 10.8 m/hr 40 317 00:02:36 90 582 00:32:58 17:21 min/m
87 586 Pamela HEIDINGER 164 01:47:22 46 315 00:08:46 2:11 sec/100m 82 519 00:05:22 71 486 00:50:16 11.9 m/hr 99 659 00:10:57 88 561 00:31:58 16:49 min/m
88 588 Kelly CASH 724 01:47:32 56 366 00:08:57 2:14 sec/100m 49 313 00:03:46 92 612 01:01:13 9.8 m/hr 24 231 00:02:12 80 541 00:31:21 16:30 min/m
89 598 Clemencia CARRILLO 734 01:48:12 99 650 00:11:43 2:55 sec/100m 91 570 00:05:57 87 569 00:55:43 10.8 m/hr 71 505 00:03:44 76 531 00:31:03 16:20 min/m
90 601 Christina SILVA 864 01:48:24 93 614 00:10:27 2:36 sec/100m 62 382 00:04:20 88 574 00:56:36 10.6 m/hr 67 471 00:03:25 91 596 00:33:34 17:40 min/m
91 611 Michelle LUTTON 726 01:51:26 75 485 00:09:24 2:21 sec/100m 99 653 00:10:47 81 546 00:54:21 11.0 m/hr 93 624 00:05:52 75 530 00:31:01 16:19 min/m
92 612 Bernadette BENITEZ 249 01:51:29 73 468 00:09:21 2:20 sec/100m 65 398 00:04:26 85 557 00:55:22 10.8 m/hr 62 422 00:03:08 98 647 00:39:11 20:37 min/m
93 619 Danette SCHWEERS 352 01:54:53 43 299 00:08:43 2:10 sec/100m 79 499 00:05:13 99 661 01:14:38 8.0 m/hr 63 433 00:03:13 36 252 00:23:05 12:09 min/m
94 621 Jennifer JAROSZESI 600 01:55:06 70 433 00:09:11 2:17 sec/100m 78 491 00:05:10 94 626 01:03:22 9.5 m/hr 66 462 00:03:22 94 611 00:34:00 17:53 min/m
95 632 Karen KNIGHT 713 01:58:58 94 623 00:10:40 2:40 sec/100m 81 515 00:05:21 95 638 01:06:00 9.1 m/hr 57 404 00:03:00 93 609 00:33:55 17:51 min/m
96 633 Deena VASBINDER 723 01:58:58 97 629 00:10:45 2:41 sec/100m 85 522 00:05:24 96 640 01:06:30 9.0 m/hr 36 301 00:02:32 92 605 00:33:45 17:46 min/m
97 639 Annette BORREGO 742 01:59:27 76 492 00:09:26 2:21 sec/100m 83 520 00:05:23 64 424 00:47:43 12.6 m/hr 100 666 00:14:05 100 666 00:42:49 22:32 min/m
98 648 Lois CAMERON 209 02:01:37 54 358 00:08:56 2:14 sec/100m 68 433 00:04:45 97 641 01:07:08 8.9 m/hr 43 321 00:02:37 96 640 00:38:09 20:05 min/m
99 657 Laura PEREZ 89 02:05:14 72 438 00:09:12 2:18 sec/100m 97 635 00:08:02 93 623 01:03:03 9.5 m/hr 98 650 00:07:44 95 635 00:37:10 19:34 min/m
100 663 Rosa JACKSON 615 02:11:04 59 388 00:09:02 2:15 sec/100m 69 443 00:04:49 100 664 01:20:56 7.4 m/hr 65 451 00:03:18 89 581 00:32:57 17:20 min/m
101 667 Debbie HAWKINS 431 02:15:57 92 611 00:10:24 2:36 sec/100m 100 656 00:11:53 98 650 01:09:52 8.6 m/hr 70 503 00:03:42 99 655 00:40:02 21:04 min/m
Ages 50 - 54
1 65 Tina BANSE 170 01:10:24 15 308 00:08:45 2:11 sec/100m 3 121 00:02:30 3 74 00:37:26 16.0 m/hr 3 68 00:01:30 2 86 00:20:10 10:37 min/m
2 69 Dolores GARZA 620 01:10:59 21 356 00:08:55 2:13 sec/100m 11 177 00:02:57 2 62 00:36:51 16.3 m/hr 12 227 00:02:11 1 85 00:20:03 10:33 min/m
3 74 Lisa WILKINSON 646 01:11:10 5 159 00:08:06 2:01 sec/100m 8 156 00:02:48 1 57 00:36:39 16.4 m/hr 16 268 00:02:25 7 137 00:21:09 11:08 min/m
4 112 Kate ARANDA 307 01:14:29 1 23 00:07:15 1:48 sec/100m 15 253 00:03:27 11 190 00:41:05 14.6 m/hr 5 150 00:01:53 5 120 00:20:48 10:57 min/m
5 119 Renee SOTO 645 01:15:02 2 100 00:07:51 1:57 sec/100m 1 74 00:02:13 10 171 00:40:28 14.8 m/hr 8 198 00:02:04 12 221 00:22:24 11:47 min/m
6 161 Carrie STEWART 232 01:18:15 26 443 00:09:12 2:18 sec/100m 35 452 00:04:55 4 93 00:38:22 15.6 m/hr 46 556 00:04:15 8 155 00:21:28 11:18 min/m
7 165 Nancy MARTIN-ELDER 839 01:18:21 8 189 00:08:15 2:03 sec/100m 32 416 00:04:34 7 138 00:39:38 15.1 m/hr 33 386 00:02:56 13 244 00:22:56 12:04 min/m
8 169 Alisa LUKASEK 120 01:18:33 42 531 00:09:44 2:26 sec/100m 5 133 00:02:36 5 133 00:39:28 15.2 m/hr 2 65 00:01:28 22 344 00:25:15 13:17 min/m
9 175 Patricia CHAPLIN 768 01:18:43 3 124 00:07:57 1:59 sec/100m 12 184 00:03:02 17 264 00:43:01 13.9 m/hr 34 412 00:03:02 9 173 00:21:38 11:23 min/m
10 181 Marie BLANTON 823 01:19:03 28 455 00:09:14 2:18 sec/100m 14 252 00:03:27 20 278 00:43:22 13.8 m/hr 18 299 00:02:32 3 103 00:20:26 10:45 min/m
11 197 Deborah VALVERDE 678 01:19:54 23 394 00:09:03 2:15 sec/100m 2 99 00:02:24 15 237 00:42:16 14.2 m/hr 26 337 00:02:44 16 266 00:23:24 12:19 min/m
12 212 Dorota WAKED 502 01:20:35 16 314 00:08:46 2:11 sec/100m 38 479 00:05:08 16 246 00:42:37 14.1 m/hr 35 430 00:03:11 6 123 00:20:51 10:58 min/m
13 251 Magalis CALDERON NADAL 254 01:22:18 47 593 00:10:14 2:33 sec/100m 6 140 00:02:39 13 201 00:41:26 14.5 m/hr 6 187 00:02:02 27 371 00:25:55 13:38 min/m
14 267 Eila WILLIAMSON 821 01:22:56 13 261 00:08:35 2:08 sec/100m 22 317 00:03:48 19 271 00:43:09 13.9 m/hr 24 328 00:02:41 19 319 00:24:42 13:00 min/m
15 278 Olga LAQUE 60 01:23:32 11 243 00:08:31 2:07 sec/100m 30 380 00:04:19 28 342 00:45:03 13.3 m/hr 40 483 00:03:30 10 204 00:22:08 11:38 min/m
16 287 Georganne YOUNT 496 01:23:55 49 603 00:10:20 2:35 sec/100m 36 455 00:04:56 6 134 00:39:29 15.2 m/hr 43 501 00:03:42 25 355 00:25:26 13:23 min/m
17 310 Michelle HARRIS 123 01:25:33 20 338 00:08:51 2:12 sec/100m 28 376 00:04:17 27 341 00:45:02 13.3 m/hr 38 454 00:03:18 18 295 00:24:03 12:39 min/m
18 314 Frederica ROLDAN 23 01:25:49 24 416 00:09:07 2:16 sec/100m 9 165 00:02:54 14 223 00:41:58 14.3 m/hr 25 330 00:02:41 39 490 00:29:07 15:19 min/m
19 315 Joette MARTIN 71 01:25:52 17 318 00:08:47 2:11 sec/100m 10 170 00:02:54 43 469 00:49:27 12.1 m/hr 4 115 00:01:41 14 250 00:23:01 12:07 min/m
20 318 Leticia JEFFORDS 595 01:25:54 41 530 00:09:44 2:26 sec/100m 53 582 00:06:08 26 339 00:45:00 13.3 m/hr 21 319 00:02:37 11 220 00:22:23 11:47 min/m
21 335 Elzbieta MCMURTRIE-JAYARAM 5 01:26:25 55 651 00:11:44 2:56 sec/100m 24 335 00:03:56 30 380 00:46:21 12.9 m/hr 45 508 00:03:46 4 114 00:20:36 10:50 min/m
22 340 Angela MCKNIGHT 588 01:26:33 34 484 00:09:24 2:21 sec/100m 7 148 00:02:44 32 392 00:46:45 12.8 m/hr 20 314 00:02:35 21 334 00:25:03 13:11 min/m
23 345 Donna FOLEY 321 01:26:43 44 560 00:09:54 2:28 sec/100m 39 483 00:05:08 29 359 00:45:34 13.2 m/hr 32 383 00:02:55 15 255 00:23:11 12:12 min/m
24 349 Kristene PICKETT 644 01:26:49 14 276 00:08:38 2:09 sec/100m 26 367 00:04:13 18 268 00:43:07 13.9 m/hr 54 644 00:07:17 17 271 00:23:34 12:24 min/m
25 350 Kathi HOPKINS 285 01:26:59 52 619 00:10:34 2:38 sec/100m 29 377 00:04:18 25 332 00:44:55 13.4 m/hr 17 269 00:02:26 20 321 00:24:44 13:01 min/m
26 367 Heidi MUTH 84 01:28:44 53 635 00:10:56 2:44 sec/100m 4 124 00:02:32 9 164 00:40:22 14.9 m/hr 28 351 00:02:47 46 563 00:32:05 16:53 min/m
27 395 Rosanna LOPEZ 570 01:30:02 19 333 00:08:51 2:12 sec/100m 33 424 00:04:39 34 411 00:47:15 12.7 m/hr 37 446 00:03:15 28 376 00:26:00 13:41 min/m
28 404 Jamissa JARMON 524 01:31:03 30 467 00:09:21 2:20 sec/100m 25 338 00:03:56 31 387 00:46:36 12.9 m/hr 41 489 00:03:36 34 434 00:27:31 14:29 min/m
29 419 Brenda RIOJAS 253 01:32:12 50 609 00:10:23 2:35 sec/100m 17 278 00:03:34 23 320 00:44:41 13.4 m/hr 36 438 00:03:13 43 518 00:30:19 15:57 min/m
30 429 Tanya ROBERTS 468 01:33:05 37 494 00:09:26 2:21 sec/100m 51 576 00:06:01 24 323 00:44:44 13.4 m/hr 55 648 00:07:32 23 347 00:25:21 13:20 min/m
31 430 Evelyn BONILLA 682 01:33:05 35 488 00:09:24 2:21 sec/100m 54 599 00:06:37 38 423 00:47:37 12.6 m/hr 13 242 00:02:15 31 416 00:27:09 14:17 min/m
32 431 Heather MCKETHAN 41 01:33:07 48 597 00:10:18 2:34 sec/100m 27 373 00:04:15 37 420 00:47:30 12.6 m/hr 27 345 00:02:47 35 462 00:28:16 14:52 min/m
33 432 Elizabeth MASSEY 469 01:33:09 7 186 00:08:14 2:03 sec/100m 18 281 00:03:35 41 452 00:48:38 12.3 m/hr 52 633 00:06:37 29 378 00:26:03 13:43 min/m
34 434 Dawn MAGERS 622 01:33:12 9 231 00:08:27 2:06 sec/100m 44 531 00:05:35 36 416 00:47:21 12.7 m/hr 29 357 00:02:49 38 485 00:28:57 15:14 min/m
35 435 Donna PEARSON 623 01:33:13 10 236 00:08:29 2:07 sec/100m 45 532 00:05:36 35 415 00:47:21 12.7 m/hr 30 359 00:02:49 37 484 00:28:57 15:14 min/m
36 439 Nancy ALKEMA 662 01:33:24 29 465 00:09:20 2:20 sec/100m 23 325 00:03:51 21 280 00:43:23 13.8 m/hr 56 662 00:11:27 24 350 00:25:22 13:21 min/m
37 450 Rebecca KENNEDY 57 01:33:46 40 508 00:09:30 2:22 sec/100m 42 494 00:05:11 8 145 00:39:49 15.1 m/hr 58 665 00:13:45 26 358 00:25:30 13:25 min/m
38 456 Pam DOYLE 671 01:34:13 12 251 00:08:33 2:08 sec/100m 34 438 00:04:46 44 475 00:49:53 12.0 m/hr 42 491 00:03:37 33 427 00:27:22 14:24 min/m
39 469 Desiree SMITH 541 01:34:59 6 178 00:08:12 2:03 sec/100m 13 216 00:03:14 47 510 00:51:08 11.7 m/hr 7 197 00:02:04 42 517 00:30:18 15:57 min/m
40 484 Liche CAVAZOS 207 01:35:49 54 640 00:11:13 2:48 sec/100m 37 456 00:04:57 33 397 00:46:51 12.8 m/hr 50 610 00:05:28 32 423 00:27:18 14:22 min/m
41 495 Susan NICHOL-JOHNSON 200 01:36:32                                    
42 510 Melissa TAYLOR 668 01:38:01 38 506 00:09:29 2:22 sec/100m 41 490 00:05:10 40 435 00:48:07 12.5 m/hr 49 608 00:05:24 40 509 00:29:48 15:41 min/m
43 515 Neva HUGHES 564 01:38:35 4 137 00:08:01 2:00 sec/100m 46 535 00:05:36 48 518 00:51:32 11.6 m/hr 15 246 00:02:17 44 534 00:31:07 16:23 min/m
44 528 Sheryl DAVIS 511 01:39:43 51 613 00:10:26 2:36 sec/100m 52 578 00:06:05 45 499 00:50:49 11.8 m/hr 11 219 00:02:10 41 514 00:30:10 15:52 min/m
45 545 Susan COLLINS 604 01:41:23 32 475 00:09:22 2:20 sec/100m 49 572 00:05:57 42 462 00:49:14 12.2 m/hr 44 506 00:03:44 49 584 00:33:03 17:23 min/m
46 547 Marisa OWEN 609 01:41:24 36 490 00:09:25 2:21 sec/100m 50 573 00:05:58 12 195 00:41:14 14.6 m/hr 57 663 00:11:43 48 583 00:33:02 17:23 min/m
47 552 Karen MCCUTCHEN 837 01:42:04 56 656 00:12:15 3:03 sec/100m 20 295 00:03:40 49 524 00:51:51 11.6 m/hr 1 48 00:01:21 47 580 00:32:54 17:19 min/m
48 557 Helen GUERRERO 845 01:42:51 27 449 00:09:14 2:18 sec/100m 31 405 00:04:29 46 506 00:51:01 11.8 m/hr 47 580 00:04:41 51 592 00:33:25 17:35 min/m
49 565 Peggy HOLLOWAY 834 01:44:22 39 507 00:09:30 2:22 sec/100m 43 498 00:05:13 51 562 00:55:26 10.8 m/hr 22 322 00:02:37 45 548 00:31:34 16:36 min/m
50 574 Laura GRONIGER 33 01:45:22 43 538 00:09:46 2:26 sec/100m 47 548 00:05:42 52 588 00:57:34 10.4 m/hr 39 463 00:03:22 36 481 00:28:56 15:13 min/m
51 591 Carolyn HUDSON 684 01:47:40 58 666 00:14:12 3:33 sec/100m 40 484 00:05:09 39 431 00:47:58 12.5 m/hr 53 636 00:06:39 52 602 00:33:41 17:43 min/m
52 592 Julie NEYMEYER 825 01:47:40 25 441 00:09:12 2:18 sec/100m 16 273 00:03:32 53 591 00:57:49 10.4 m/hr 31 370 00:02:52 53 613 00:34:13 18:00 min/m
53 617 Sabina BENAVENTE 636 01:52:06 18 328 00:08:49 2:12 sec/100m 21 316 00:03:48 55 614 01:01:45 9.7 m/hr 10 212 00:02:07 57 625 00:35:34 18:43 min/m
54 618 Samantha GALLEGOS 656 01:54:50 31 472 00:09:22 2:20 sec/100m 48 555 00:05:48 54 613 01:01:32 9.7 m/hr 23 324 00:02:39 56 624 00:35:28 18:40 min/m
55 629 April SORRELL-TAYLOR 704 01:57:59 57 658 00:12:24 3:06 sec/100m 57 643 00:08:51 22 303 00:44:10 13.6 m/hr 48 582 00:04:42 58 667 00:47:50 25:10 min/m
56 635 Belinda JONES 166 01:59:13 33 476 00:09:22 2:20 sec/100m 19 289 00:03:39 56 649 01:09:43 8.6 m/hr 9 201 00:02:05 54 617 00:34:22 18:05 min/m
57 644 Mary Rose NGUYEN 681 02:01:02 46 591 00:10:13 2:33 sec/100m 56 612 00:07:07 58 663 01:14:54 8.0 m/hr 14 245 00:02:17 30 387 00:26:30 13:56 min/m
58 651 Gemma QUINSAAT 680 02:03:24 45 589 00:10:11 2:32 sec/100m 55 609 00:07:04 57 651 01:10:10 8.5 m/hr 19 310 00:02:34 50 591 00:33:22 17:33 min/m
59 659 Jane SNYDER 144 02:06:42 22 375 00:08:59 2:14 sec/100m 58 665 00:21:43 50 558 00:55:22 10.8 m/hr 51 617 00:05:45 55 619 00:34:51 18:20 min/m
Ages 55 - 59
1 78 Sandy TOUCHTON 305 01:11:34 19 368 00:08:58 2:14 sec/100m 5 100 00:02:24 1 48 00:36:08 16.6 m/hr 12 262 00:02:22 1 178 00:21:40 11:24 min/m
2 80 Catherine ROBINSON 220 01:11:46 2 62 00:07:44 1:56 sec/100m 2 57 00:02:00 2 52 00:36:24 16.5 m/hr 16 346 00:02:47 3 238 00:22:48 12:00 min/m
3 130 Elaine BLAIN 378 01:15:41 5 106 00:07:53 1:58 sec/100m 4 94 00:02:23 4 89 00:38:10 15.7 m/hr 22 411 00:03:02 4 304 00:24:11 12:43 min/m
4 162 Sherry RUBINS 423 01:18:15 4 104 00:07:53 1:58 sec/100m 7 116 00:02:29 8 163 00:40:21 14.9 m/hr 10 191 00:02:03 8 357 00:25:27 13:24 min/m
5 174 Melissa KOLLAJA 88 01:18:42 14 247 00:08:32 2:08 sec/100m 13 210 00:03:12 9 173 00:40:31 14.8 m/hr 4 108 00:01:40 7 323 00:24:46 13:02 min/m
6 177 Annette KRENZ 575 01:18:53 15 260 00:08:34 2:08 sec/100m 15 234 00:03:19 13 267 00:43:06 13.9 m/hr 5 120 00:01:42 2 205 00:22:09 11:39 min/m
7 191 Susan ROBERTS 824 01:19:38 6 125 00:07:57 1:59 sec/100m 10 198 00:03:08 5 115 00:38:54 15.4 m/hr 9 172 00:01:59 15 436 00:27:38 14:32 min/m
8 245 Norma GONZALEZ 182 01:22:06 8 149 00:08:04 2:01 sec/100m 8 174 00:02:56 21 355 00:45:26 13.2 m/hr 1 60 00:01:26 5 305 00:24:12 12:44 min/m
9 258 Marci PIERSON 255 01:22:35 3 83 00:07:48 1:57 sec/100m 1 48 00:01:53 11 215 00:41:50 14.3 m/hr 7 155 00:01:55 18 489 00:29:07 15:19 min/m
10 271 Kathy SHUSSLER 549 01:23:06 1 61 00:07:43 1:55 sec/100m 9 188 00:03:04 16 290 00:43:33 13.8 m/hr 20 391 00:02:57 11 364 00:25:46 13:33 min/m
11 277 Angela FORRESTER 54 01:23:26 24 457 00:09:18 2:19 sec/100m 11 201 00:03:08 6 119 00:39:00 15.4 m/hr 19 384 00:02:55 17 486 00:29:03 15:17 min/m
12 299 Sheri BOOS 282 01:24:52 11 197 00:08:17 2:04 sec/100m 16 258 00:03:28 18 311 00:44:25 13.5 m/hr 24 425 00:03:08 9 360 00:25:32 13:26 min/m
13 322 Elizabeth HEDDEN 781 01:26:08                                    
14 353 Jeanne HOLLEWAY 850 01:27:17 25 461 00:09:19 2:19 sec/100m 32 566 00:05:53 3 63 00:36:51 16.3 m/hr 36 598 00:05:06 24 513 00:30:05 15:50 min/m
15 373 Kathryn POLT 409 01:29:11 29 500 00:09:28 2:22 sec/100m 3 70 00:02:11 7 126 00:39:12 15.3 m/hr 26 452 00:03:18 36 622 00:35:00 18:25 min/m
16 407 Elizabeth MCDOWELL 526 01:31:16 18 354 00:08:55 2:13 sec/100m 30 542 00:05:38 10 174 00:40:31 14.8 m/hr 30 526 00:03:53 29 568 00:32:17 16:59 min/m
17 409 Darcy KIECKE 808 01:31:29 35 624 00:10:41 2:40 sec/100m 31 556 00:05:48 19 316 00:44:37 13.4 m/hr 35 568 00:04:22 12 374 00:25:59 13:40 min/m
18 413 Kathleen DUNN-CANE 29 01:31:40 38 652 00:11:46 2:56 sec/100m 29 516 00:05:21 17 301 00:44:01 13.6 m/hr 39 621 00:05:48 6 320 00:24:42 13:00 min/m
19 415 Nancy ADAMS 397 01:31:42 17 313 00:08:46 2:11 sec/100m 27 482 00:05:08 26 496 00:50:36 11.9 m/hr 3 93 00:01:38 10 361 00:25:32 13:26 min/m
20 416 Lisa MITCHELL 706 01:31:42 9 156 00:08:05 2:01 sec/100m 12 204 00:03:09 20 346 00:45:10 13.3 m/hr 38 618 00:05:45 22 504 00:29:30 15:31 min/m
21 425 Susan OBRIEN 461 01:32:53 21 405 00:09:05 2:16 sec/100m 17 283 00:03:35 14 275 00:43:17 13.9 m/hr 25 436 00:03:13 33 599 00:33:40 17:43 min/m
22 428 Barbara MARTIN 20 01:32:58 22 448 00:09:13 2:18 sec/100m 18 290 00:03:39 15 279 00:43:23 13.8 m/hr 21 408 00:03:01 34 601 00:33:41 17:43 min/m
23 436 Kathy FRIEDRICHSEN 795 01:33:16 7 143 00:08:02 2:00 sec/100m 14 219 00:03:16 34 533 00:52:23 11.5 m/hr 18 368 00:02:52 13 398 00:26:42 14:03 min/m
24 463 Terre HIBBARD 436 01:34:44 12 204 00:08:19 2:04 sec/100m 37 628 00:07:50 25 471 00:49:43 12.1 m/hr 2 72 00:01:31 14 425 00:27:19 14:23 min/m
25 471 Tammy BLAKLEY 603 01:35:08 10 177 00:08:12 2:03 sec/100m 19 304 00:03:43 36 540 00:53:16 11.3 m/hr 8 163 00:01:58 16 449 00:27:57 14:42 min/m
26 480 Catherine POST 547 01:35:30 37 647 00:11:28 2:52 sec/100m 34 594 00:06:26 12 227 00:42:01 14.3 m/hr 15 341 00:02:45 31 578 00:32:48 17:15 min/m
27 492 Anne WEINHEIMER 136 01:36:21 32 588 00:10:11 2:32 sec/100m 20 351 00:04:06 23 401 00:46:54 12.8 m/hr 29 478 00:03:27 27 554 00:31:41 16:40 min/m
28 493 Mary Beth CARNATHAN 585 01:36:21 28 497 00:09:27 2:21 sec/100m 35 607 00:06:53 22 384 00:46:30 12.9 m/hr 32 553 00:04:14 19 495 00:29:16 15:24 min/m
29 497 Sharon NICHOL-JOST 201 01:36:39                                    
30 505 Bobbie KELNER 698 01:37:49 20 389 00:09:02 2:15 sec/100m 38 631 00:07:56 24 432 00:47:58 12.5 m/hr 23 414 00:03:03 23 507 00:29:47 15:40 min/m
31 520 Marie DEGENNARO 248 01:38:55 16 290 00:08:41 2:10 sec/100m 25 439 00:04:47 28 511 00:51:10 11.7 m/hr 6 126 00:01:45 30 572 00:32:30 17:06 min/m
32 539 Mary A SERRANO 228 01:41:00 36 645 00:11:20 2:50 sec/100m 21 388 00:04:22 29 513 00:51:21 11.7 m/hr 13 282 00:02:29 26 545 00:31:27 16:33 min/m
33 543 Rebecca SHIVELY 542 01:41:13 26 464 00:09:20 2:20 sec/100m 33 581 00:06:08 31 526 00:51:59 11.5 m/hr 33 562 00:04:17 21 499 00:29:27 15:30 min/m
34 558 Carol HEINZ 516 01:43:11 13 224 00:08:24 2:06 sec/100m 39 651 00:09:49 33 531 00:52:14 11.5 m/hr 27 464 00:03:22 20 497 00:29:19 15:25 min/m
35 566 Becky SNELL 729 01:44:32 31 575 00:10:03 2:30 sec/100m 36 624 00:07:38 27 505 00:50:59 11.8 m/hr 31 536 00:03:59 28 558 00:31:51 16:46 min/m
36 570 Jane MCMILLIAN 519 01:44:45 27 487 00:09:24 2:21 sec/100m 28 497 00:05:13 32 527 00:52:04 11.5 m/hr 34 565 00:04:19 35 604 00:33:43 17:45 min/m
37 572 Debbie TRAMMELL 261 01:44:48 23 453 00:09:14 2:18 sec/100m 26 460 00:04:58 30 521 00:51:45 11.6 m/hr 37 600 00:05:09 32 598 00:33:40 17:43 min/m
38 573 Alicia SANTIAGO 667 01:45:10 34 616 00:10:30 2:37 sec/100m 23 390 00:04:22 38 575 00:56:38 10.6 m/hr 28 470 00:03:25 25 515 00:30:13 15:54 min/m
39 608 Joye HAUN 628 01:49:44 30 563 00:09:55 2:28 sec/100m 24 425 00:04:40 35 536 00:53:02 11.3 m/hr 17 354 00:02:48 37 649 00:39:17 20:40 min/m
40 610 Rita GARCIA 855 01:50:55 33 592 00:10:13 2:33 sec/100m 22 389 00:04:22 37 541 00:53:18 11.3 m/hr 14 289 00:02:30 39 658 00:40:30 21:19 min/m
41 637 Martha BURR 653 01:59:19 39 657 00:12:18 3:04 sec/100m 6 108 00:02:26 39 620 01:02:34 9.6 m/hr 11 260 00:02:21 38 651 00:39:39 20:52 min/m
Ages 60 - 64
1 134 Susan REED 663 01:16:00 1 112 00:07:54 1:58 sec/100m 16 534 00:05:36 3 150 00:39:53 15.0 m/hr 4 199 00:02:05 1 106 00:20:31 10:48 min/m
2 135 Cynthia MARS 449 01:16:00 3 203 00:08:19 2:04 sec/100m 3 166 00:02:54 2 148 00:39:52 15.0 m/hr 1 124 00:01:45 3 254 00:23:10 12:11 min/m
3 260 Lila OWENS 471 01:22:39 5 305 00:08:44 2:11 sec/100m 7 321 00:03:50 9 305 00:44:11 13.6 m/hr 12 437 00:03:13 2 234 00:22:39 11:55 min/m
4 270 Jan PATTERSON 465 01:23:04 15 617 00:10:32 2:38 sec/100m 1 115 00:02:28 1 108 00:38:48 15.5 m/hr 7 338 00:02:45 7 466 00:28:28 14:59 min/m
5 324 Karen REYNOLDS 816 01:26:14 6 319 00:08:47 2:11 sec/100m 15 493 00:05:10 6 222 00:41:57 14.3 m/hr 16 607 00:05:24 5 326 00:24:54 13:06 min/m
6 327 Elizabeth BAUTSCH 317 01:26:17 8 436 00:09:11 2:17 sec/100m 2 143 00:02:42 5 181 00:40:47 14.7 m/hr 10 409 00:03:02 9 526 00:30:33 16:04 min/m
7 410 Donna WELLS 53 01:31:31 11 561 00:09:54 2:28 sec/100m 6 284 00:03:36 7 244 00:42:33 14.1 m/hr 8 389 00:02:56 13 573 00:32:30 17:06 min/m
8 426 Amy O'NEIL 727 01:32:55 9 454 00:09:14 2:18 sec/100m 5 271 00:03:31 8 285 00:43:29 13.8 m/hr 9 397 00:02:58 16 600 00:33:40 17:43 min/m
9 442 Linda ADAMS 530 01:33:30 10 518 00:09:36 2:24 sec/100m 18 593 00:06:24 4 180 00:40:45 14.7 m/hr 13 518 00:03:49 14 579 00:32:53 17:18 min/m
10 482 Rochele Rogers DUNFORD 329 01:35:45 4 293 00:08:42 2:10 sec/100m 14 451 00:04:53 13 523 00:51:48 11.6 m/hr 5 254 00:02:20 6 452 00:27:59 14:44 min/m
11 501 Nancy CARTER 333 01:36:55 2 160 00:08:07 2:01 sec/100m 11 419 00:04:35 11 429 00:47:55 12.5 m/hr 11 424 00:03:08 15 589 00:33:09 17:27 min/m
12 514 Cindy WENDLING 743 01:38:26 19 665 00:13:50 3:27 sec/100m 9 386 00:04:21 10 319 00:44:41 13.4 m/hr 15 574 00:04:28 10 533 00:31:04 16:21 min/m
13 537 Catherine ROBINSON 269 01:40:54 7 321 00:08:47 2:11 sec/100m 4 241 00:03:23 16 573 00:56:35 10.6 m/hr 2 144 00:01:50 8 516 00:30:17 15:56 min/m
14 595 Sharon OVERMEYER 286 01:48:03 14 585 00:10:08 2:32 sec/100m 13 430 00:04:44 18 595 00:58:31 10.3 m/hr 6 255 00:02:20 11 569 00:32:18 17:00 min/m
15 596 Patricia POWELL 287 01:48:05 13 579 00:10:05 2:31 sec/100m 12 428 00:04:42 14 532 00:52:20 11.5 m/hr 19 652 00:08:37 12 571 00:32:19 17:00 min/m
16 606 Roxanne ARNDT 160 01:49:36 18 664 00:13:36 3:24 sec/100m 10 403 00:04:28 12 434 00:48:01 12.5 m/hr 14 527 00:03:53 18 650 00:39:36 20:50 min/m
17 625 Karol PETERS 360 01:56:03 16 648 00:11:30 2:52 sec/100m 8 384 00:04:21 17 579 00:57:00 10.5 m/hr 18 638 00:06:39 17 630 00:36:31 19:13 min/m
18 626 Maria De Los Angeles PANTOJA 770 01:56:08 12 564 00:09:55 2:28 sec/100m 17 541 00:05:38 19 662 01:14:48 8.0 m/hr 3 189 00:02:03 4 277 00:23:43 12:28 min/m
19 658 Jane HAUG 6 02:06:00 17 663 00:13:14 3:18 sec/100m 19 644 00:08:52 15 555 00:55:20 10.8 m/hr 17 635 00:06:38 19 663 00:41:54 22:03 min/m
Ages 65 - 69
1 115 Anne WALKER 172 01:14:37 1 291 00:08:42 2:10 sec/100m 2 224 00:03:18 1 140 00:39:38 15.1 m/hr 1 194 00:02:03 1 125 00:20:53 10:59 min/m
2 336 Rebecca LARSON 467 01:26:30 2 450 00:09:14 2:18 sec/100m 4 411 00:04:33 2 229 00:42:05 14.3 m/hr 2 277 00:02:28 3 459 00:28:09 14:49 min/m
3 357 Theresa NELSON 655 01:27:30 3 521 00:09:39 2:24 sec/100m 1 163 00:02:53 4 352 00:45:20 13.2 m/hr 3 326 00:02:39 2 407 00:26:56 14:10 min/m
4 504 Cathy BUCHANAN 422 01:37:27 5 570 00:09:59 2:29 sec/100m 5 447 00:04:52 3 243 00:42:28 14.1 m/hr 5 395 00:02:57 5 634 00:37:09 19:33 min/m
5 640 Debby BUSSEY 399 01:59:50 4 540 00:09:46 2:26 sec/100m 6 636 00:08:08 6 631 01:03:49 9.4 m/hr 4 387 00:02:56 4 623 00:35:08 18:29 min/m
6 641 Chrissy HESTER 44 01:59:54 6 661 00:12:54 3:13 sec/100m 3 356 00:04:08 5 602 00:59:21 10.1 m/hr 6 516 00:03:49 6 652 00:39:39 20:52 min/m
Ages 70 - 74
1 605 Lynn FRANCIS 495 01:49:34 2 636 00:10:58 2:44 sec/100m 1 615 00:07:22 1 528 00:52:07 11.5 m/hr 2 613 00:05:35 1 595 00:33:30 17:38 min/m
2 669 Sarah GOWAN 429 02:16:03 1 618 00:10:33 2:38 sec/100m 2 654 00:11:33 2 653 01:10:13 8.5 m/hr 1 494 00:03:39 2 656 00:40:03 21:05 min/m
2 Person Relay
1 9 TRI-ING WITH MY BESTIE! 2005 01:01:58 8 431 00:09:10 2:17 sec/100m 1 2 00:00:50 1 13 00:32:16 18.6 m/hr 1 1 00:00:42 1 50 00:18:58 9:59 min/m
2 15 TEAM DENIS 2009 01:03:06 2 46 00:07:34 1:53 sec/100m 4 46 00:01:51 2 28 00:33:54 17.7 m/hr 2 2 00:00:46 2 52 00:18:58 9:59 min/m
3 164 THE DARLINGS 2002 01:18:21 5 201 00:08:18 2:04 sec/100m 6 54 00:01:59 6 299 00:43:55 13.7 m/hr 4 37 00:01:16 5 239 00:22:50 12:01 min/m
4 168 PRATT - FITZ 2012 01:18:29 10 659 00:12:29 3:07 sec/100m 7 126 00:02:32 3 83 00:37:51 15.9 m/hr 3 32 00:01:15 7 309 00:24:20 12:48 min/m
5 206 THE MIMOSAS 2007 01:20:19 6 343 00:08:52 2:13 sec/100m 5 47 00:01:52 4 112 00:38:53 15.4 m/hr 10 375 00:02:54 8 444 00:27:46 14:37 min/m
6 295 TEAM HEIDI 2006 01:24:31 7 362 00:08:57 2:14 sec/100m 8 357 00:04:09 9 466 00:49:20 12.2 m/hr 7 209 00:02:06 3 79 00:19:58 10:30 min/m
7 302 THE EAGLES 2004 01:24:59 1 1 00:05:52 1:28 sec/100m 2 5 00:00:56 5 296 00:43:41 13.7 m/hr 9 315 00:02:36 9 559 00:31:53 16:46 min/m
8 316 WWW&D 2011 01:25:52 3 86 00:07:50 1:57 sec/100m 9 448 00:04:52 8 419 00:47:29 12.6 m/hr 5 58 00:01:26 6 306 00:24:14 12:45 min/m
9 368 SWEET AND SASSY 2003 01:28:44 4 93 00:07:50 1:57 sec/100m 3 17 00:01:29 10 552 00:55:12 10.9 m/hr 6 185 00:02:02 4 207 00:22:09 11:39 min/m
10 531 ROSA WENDY 2008 01:40:08 9 578 00:10:05 2:31 sec/100m 10 495 00:05:12 7 393 00:46:47 12.8 m/hr 8 241 00:02:15 10 626 00:35:48 18:50 min/m
3 Person Relay
1 127 WONDER WOMEN 3006 01:15:32 3 221 00:08:24 2:06 sec/100m 1 4 00:00:55 2 289 00:43:33 13.8 m/hr 2 11 00:01:03 2 167 00:21:35 11:22 min/m
2 248 TRI CHICKS 3004 01:22:15 2 141 00:08:02 2:00 sec/100m 2 9 00:01:08 5 491 00:50:25 11.9 m/hr 3 19 00:01:11 1 153 00:21:28 11:18 min/m
3 306 FORCE 3007 01:25:11 8 557 00:09:53 2:28 sec/100m 4 28 00:01:39 1 254 00:42:45 14.0 m/hr 4 47 00:01:21 7 503 00:29:30 15:31 min/m
4 347 MIMOSA GIRLS 3008 01:26:48 1 17 00:07:09 1:47 sec/100m 5 159 00:02:50 3 336 00:44:57 13.3 m/hr 5 66 00:01:29 8 521 00:30:21 15:58 min/m
5 355 TRI ANGELS 3003 01:27:22 5 352 00:08:55 2:13 sec/100m 3 15 00:01:28 4 455 00:48:47 12.3 m/hr 1 3 00:00:58 6 419 00:27:13 14:19 min/m
6 440 SPALICIOUS 587 01:33:25 7 445 00:09:13 2:18 sec/100m 7 446 00:04:52 6 509 00:51:05 11.7 m/hr 7 545 00:04:05 5 302 00:24:09 12:43 min/m
7 512 BOOK WORMS 3001 01:38:12 6 393 00:09:03 2:15 sec/100m 8 530 00:05:30 7 587 00:57:33 10.4 m/hr 8 566 00:04:20 3 185 00:21:45 11:26 min/m
8 536 THE TRI-LINGUALS 3002 01:40:53 4 303 00:08:44 2:11 sec/100m 6 265 00:03:29 8 621 01:02:55 9.5 m/hr 6 514 00:03:48 4 194 00:21:55 11:32 min/m
Probable Short Course
1 1 Patricia NAVARRO 787 00:56:30 1 154 00:08:05 2:01 sec/100m 5 417 00:04:34 1 1 00:20:26 29.4 m/hr 6 479 00:03:27 2 78 00:19:56 10:29 min/m
2 4 Cynthia GILLINGHAM 154 01:01:06 8 513 00:09:33 2:23 sec/100m 1 73 00:02:12 10 10 00:31:27 19.1 m/hr 1 83 00:01:34 1 11 00:16:18 8:34 min/m
3 5 Itzel MENDOZA 831 01:01:17 3 202 00:08:18 2:04 sec/100m 3 332 00:03:55 3 3 00:24:35 24.4 m/hr 2 139 00:01:49 4 231 00:22:37 11:54 min/m
4 8 Meredith WAGNER 213 01:01:51 5 229 00:08:26 2:06 sec/100m 6 533 00:05:36 2 2 00:23:52 25.1 m/hr 4 410 00:03:02 3 124 00:20:53 10:59 min/m
5 101 Yvonne HINES 384 01:13:40 6 268 00:08:36 2:09 sec/100m 8 562 00:05:51 4 4 00:24:50 24.2 m/hr 9 653 00:08:46 5 363 00:25:35 13:28 min/m
6 132 Ashley HOOLIHAN 746 01:15:53 2 198 00:08:17 2:04 sec/100m 9 574 00:05:59 7 7 00:30:05 19.9 m/hr 5 439 00:03:14 8 463 00:28:16 14:52 min/m
7 154 Kaylie SCHEFFLER 719 01:17:40 7 361 00:08:57 2:14 sec/100m 4 347 00:04:01 11 11 00:31:34 19.0 m/hr 3 306 00:02:33 10 525 00:30:32 16:04 min/m
1 210   3009 01:20:30 1 36 00:07:28 1:52 sec/100m 1 103 00:02:25 1 408 00:47:04 12.7 m/hr 1 94 00:01:38 1 193 00:21:53 11:31 min/m
8 222 Jane IRELAND 161 01:21:01 12 632 00:10:54 2:43 sec/100m 2 215 00:03:14 8 8 00:30:29 19.7 m/hr 7 493 00:03:38 11 577 00:32:43 17:13 min/m
9 280 Wendy COLOTTA 735 01:23:35 4 225 00:08:25 2:06 sec/100m 7 558 00:05:50 12 12 00:31:48 18.9 m/hr 8 507 00:03:45 12 606 00:33:45 17:46 min/m
10 359 Katie ACKERMAN 446 01:27:37 10 630 00:10:47 2:41 sec/100m 11 641 00:08:40 6 6 00:29:08 20.6 m/hr 10 660 00:11:17 6 441 00:27:44 14:36 min/m
11 361 Heidi SIMPSON 227 01:27:43 11 631 00:10:50 2:42 sec/100m 12 642 00:08:43 5 5 00:29:04 20.6 m/hr 11 661 00:11:18 7 443 00:27:46 14:36 min/m
12 414 Ekta POPAT 59 01:31:41 9 544 00:09:48 2:27 sec/100m 10 589 00:06:17 9 9 00:30:41 19.5 m/hr 12 667 00:14:33 9 519 00:30:19 15:57 min/m
Chip Timing by RRPTiming.com!

 

[ Tri ][ Swim/Bike ] [ Swim/Run ] [ Bike/Run ]

2017 SpaGirl Triathlon San Antonio
Swim/Bike Results
Overall Swim T1 Bike
Pos Name Race No Time Swim Split Swim Pace T1 Bike Split Bike Pace
1 Nancy REHM 239 00:42:01 00:06:48 1:42 sec/100m 00:02:15 00:32:57 18.2 m/hr
Chip Timing by RRPTiming.com!

 

[ Tri ][ Swim/Bike ] [ Swim/Run ] [ Bike/Run ]

2017 SpaGirl Triathlon San Antonio
Swim/Run Results
# of finishers: 21
Overall Swim T1 Run
Pos Name Race No Time Pos Swim Split Swim Pace Pos T1 Pos Run Split Run Pace
1 Tracy PAWLAK 739 00:37:22 6 00:09:33 2:23 sec/100m 7 00:03:03 3 00:24:46 13:02 min/m
2 Denise MAZZA 687 00:38:06 2 00:08:50 2:12 sec/100m 10 00:03:54 4 00:25:21 13:21 min/m
3 Christina VALENTINE 856 00:38:24 4 00:08:58 2:14 sec/100m 4 00:02:24 6 00:27:02 14:13 min/m
4 Rachel MANNING 842 00:39:27 10 00:09:50 2:27 sec/100m 9 00:03:54 5 00:25:43 13:32 min/m
5 Kathleen CUMMINGS 506 00:39:28 3 00:08:57 2:14 sec/100m 8 00:03:13 7 00:27:17 14:22 min/m
6 Katheryn BARLOW 764 00:40:19 14 00:10:47 2:41 sec/100m 3 00:00:53 8 00:28:39 15:04 min/m
7 Victoria ADAMS 474 00:43:27 5 00:09:10 2:17 sec/100m 16 00:09:47 2 00:24:29 12:53 min/m
8 Berenice BUENROSTRO 69 00:43:54 1 00:08:17 2:04 sec/100m 5 00:02:54 11 00:32:42 17:13 min/m
9 Margaret MAHLE 738 00:44:09 7 00:09:39 2:24 sec/100m 6 00:02:59 10 00:31:31 16:35 min/m
10 Katelynn SCHLOTFELDT 846 00:44:23                
11 Emma DROMGOOLE 176 00:46:09 18 00:12:55 3:13 sec/100m 1 00:00:09 12 00:33:04 17:24 min/m
12 Doris SANCHEZ 852 00:47:45                
13 Annika STILES 830 00:48:35 16 00:11:00 2:45 sec/100m 11 00:06:54 9 00:30:40 16:08 min/m
14 Megan HOEVENER 396 00:48:55 15 00:10:59 2:44 sec/100m 2 00:00:42 16 00:37:13 19:35 min/m
15 Jackie MOCZYGEMBA 102 00:50:18 13 00:10:35 2:38 sec/100m 19 00:16:04 1 00:23:37 12:26 min/m
16 Marty STILES 578 00:51:43 17 00:11:02 2:45 sec/100m 12 00:06:55 13 00:33:45 17:46 min/m
17 Anna L AGUILAR 362 00:56:22 9 00:09:48 2:27 sec/100m 15 00:08:52 17 00:37:41 19:50 min/m
18 Estela JOACHIM 175 00:57:12 8 00:09:48 2:27 sec/100m 14 00:08:49 19 00:38:35 20:18 min/m
19 Sophia JOACHIM 361 00:57:17 11 00:09:57 2:29 sec/100m 13 00:08:47 18 00:38:33 20:17 min/m
20 Joanna MINNIX 833 01:00:39 12 00:10:17 2:34 sec/100m 18 00:14:37 15 00:35:44 18:48 min/m
21 Nancy MCGOWAN 532 01:00:58 19 00:14:24 3:36 sec/100m 17 00:12:18 14 00:34:14 18:01 min/m
Chip Timing by RRPTiming.com!

 

[ Tri ][ Swim/Bike ] [ Swim/Run ] [ Bike/Run ]

2017 SpaGirl Triathlon San Antonio
Bike/Run Results
# of finishers: 21
Overall Bike T1 Run
Pos Name Race No Time Pos Swim Split Swim Pace Pos T1 Pos Run Split Run Pace
1 Marcy GARZA 901 00:59:05 2 00:38:42 15.5 m/hr 4 00:01:52 2 00:18:29 9:44 min/m
2 Rhonda KINSER 915 01:01:12 1 00:37:40 15.9 m/hr 3 00:01:35 6 00:21:56